Observation data for Sierra Blanca on 03/11/2018      Previous  Date  Next       Current Mesonet Observations  Soil Data  Daily Summary Page  Observations in Plain Language
KSB1 110600Z 31005KT 17/M03 A3005 RMK A01 T01701029  RH  025%=      5-min Rain = 0
KSB1 110601Z 30007KT 17/M03 A3005 RMK A01 T01701029  RH  025%=      5-min Rain = 0
KSB1 110602Z 30009KT 17/M03 A3005 RMK A01 T01701029  RH  026%=      5-min Rain = 0
KSB1 110603Z 30008KT 17/M03 A3005 RMK A01 T01701028  RH  026%=      5-min Rain = 0
KSB1 110604Z 31009KT 17/M03 A3005 RMK A01 T01711028  RH  026%=      5-min Rain = 0
KSB1 110605Z 31009KT 17/M03 A3005 RMK A01 T01711028  RH  026%=      5-min Rain = 0
KSB1 110606Z 31010KT 17/M03 A3005 RMK A01 T01701028  RH  026%=      5-min Rain = 0
KSB1 110607Z 32010KT 17/M03 A3005 RMK A01 T01711028  RH  026%=      5-min Rain = 0
KSB1 110608Z 32007KT 17/M03 A3005 RMK A01 T01711028  RH  026%=      5-min Rain = 0
KSB1 110609Z 32007KT 17/M03 A3005 RMK A01 T01701029  RH  026%=      5-min Rain = 0
KSB1 110610Z 32007KT 17/M03 A3005 RMK A01 T01691028  RH  026%=      5-min Rain = 0
KSB1 110611Z 33007KT 17/M03 A3005 RMK A01 T01681029  RH  026%=      5-min Rain = 0
KSB1 110612Z 36004KT 17/M03 A3005 RMK A01 T01671032  RH  025%=      5-min Rain = 0
KSB1 110613Z 32004KT 17/M03 A3005 RMK A01 T01661033  RH  026%=      5-min Rain = 0
KSB1 110614Z 33001KT 17/M03 A3005 RMK A01 T01651030  RH  026%=      5-min Rain = 0
KSB1 110615Z 31003KT 17/M03 A3006 RMK A01 T01651030  RH  026%=      5-min Rain = 0
KSB1 110616Z 36003KT 17/M03 A3006 RMK A01 T01651031  RH  026%=      5-min Rain = 0
KSB1 110617Z 04003KT 16/M03 A3006 RMK A01 T01641033  RH  026%=      5-min Rain = 0
KSB1 110618Z 02003KT 16/M04 A3006 RMK A01 T01621036  RH  025%=      5-min Rain = 0
KSB1 110619Z 34004KT 16/M04 A3006 RMK A01 T01611035  RH  026%=      5-min Rain = 0
KSB1 110620Z 34005KT 16/M03 A3006 RMK A01 T01611032  RH  026%=      5-min Rain = 0
KSB1 110621Z 36003KT 16/M03 A3005 RMK A01 T01611033  RH  026%=      5-min Rain = 0
KSB1 110622Z 33004KT 16/M04 A3005 RMK A01 T01621035  RH  026%=      5-min Rain = 0
KSB1 110623Z 03004KT 16/M03 A3005 RMK A01 T01611032  RH  026%=      5-min Rain = 0
KSB1 110624Z 04004KT 16/M04 A3005 RMK A01 T01611036  RH  026%=      5-min Rain = 0
KSB1 110625Z 05003KT 16/M04 A3006 RMK A01 T01591037  RH  026%=      5-min Rain = 0
KSB1 110626Z 05001KT 16/M04 A3006 RMK A01 T01581038  RH  026%=      5-min Rain = 0
KSB1 110627Z 35001KT 16/M04 A3006 RMK A01 T01571038  RH  026%=      5-min Rain = 0
KSB1 110628Z 03003KT 16/M04 A3006 RMK A01 T01561037  RH  026%=      5-min Rain = 0
KSB1 110629Z 03002KT 16/M04 A3006 RMK A01 T01551038  RH  026%=      5-min Rain = 0
KSB1 110630Z 12000KT 16/M04 A3006 RMK A01 T01561037  RH  026%=      5-min Rain = 0
KSB1 110631Z 02003KT 16/M04 A3006 RMK A01 T01551036  RH  027%=      5-min Rain = 0
KSB1 110632Z 01003KT 16/M04 A3006 RMK A01 T01551035  RH  027%=      5-min Rain = 0
KSB1 110633Z 36002KT 16/M04 A3006 RMK A01 T01561035  RH  027%=      5-min Rain = 0
KSB1 110634Z 05003KT 16/M04 A3006 RMK A01 T01561036  RH  027%=      5-min Rain = 0
KSB1 110635Z 05004KT 16/M04 A3006 RMK A01 T01551036  RH  027%=      5-min Rain = 0
KSB1 110636Z 02004KT 16/M03 A3006 RMK A01 T01551034  RH  027%=      5-min Rain = 0
KSB1 110637Z 02003KT 16/M03 A3006 RMK A01 T01561032  RH  027%=      5-min Rain = 0
KSB1 110638Z 05003KT 16/M03 A3006 RMK A01 T01571034  RH  027%=      5-min Rain = 0
KSB1 110639Z 05003KT 16/M04 A3006 RMK A01 T01571035  RH  026%=      5-min Rain = 0
KSB1 110640Z 04003KT 16/M04 A3006 RMK A01 T01571036  RH  026%=      5-min Rain = 0
KSB1 110641Z 04005KT 16/M04 A3006 RMK A01 T01551037  RH  026%=      5-min Rain = 0
KSB1 110642Z 05005KT 15/M04 A3006 RMK A01 T01531038  RH  027%=      5-min Rain = 0
KSB1 110643Z 05005KT 15/M04 A3006 RMK A01 T01511038  RH  027%=      5-min Rain = 0
KSB1 110644Z 03005KT 15/M04 A3006 RMK A01 T01491038  RH  027%=      5-min Rain = 0
KSB1 110645Z 03005KT 15/M04 A3006 RMK A01 T01491038  RH  027%=      5-min Rain = 0
KSB1 110646Z 04005KT 15/M04 A3006 RMK A01 T01481038  RH  027%=      5-min Rain = 0
KSB1 110647Z 05005KT 15/M04 A3006 RMK A01 T01481037  RH  028%=      5-min Rain = 0
KSB1 110648Z 03004KT 15/M04 A3006 RMK A01 T01481037  RH  028%=      5-min Rain = 0
KSB1 110649Z 03003KT 15/M04 A3006 RMK A01 T01481037  RH  028%=      5-min Rain = 0
KSB1 110650Z 01004KT 15/M04 A3006 RMK A01 T01481037  RH  028%=      5-min Rain = 0
KSB1 110651Z 02004KT 15/M04 A3006 RMK A01 T01491036  RH  028%=      5-min Rain = 0
KSB1 110652Z 03004KT 15/M04 A3006 RMK A01 T01501036  RH  027%=      5-min Rain = 0
KSB1 110653Z 03004KT 15/M04 A3007 RMK A01 T01511036  RH  027%=      5-min Rain = 0
KSB1 110654Z 31003KT 15/M04 A3007 RMK A01 T01501035  RH  028%=      5-min Rain = 0
KSB1 110655Z 28002KT 15/M03 A3007 RMK A01 T01521033  RH  028%=      5-min Rain = 0
KSB1 110656Z 26000KT 15/M03 A3007 RMK A01 T01541033  RH  027%=      5-min Rain = 0
KSB1 110657Z 28001KT 15/M03 A3007 RMK A01 T01541034  RH  027%=      5-min Rain = 0
KSB1 110658Z 29002KT 15/M03 A3007 RMK A01 T01541034  RH  027%=      5-min Rain = 0
KSB1 110659Z 28000KT 16/M03 A3007 RMK A01 T01551033  RH  027%=      5-min Rain = 0
KSB1 110700Z 00000KT 16/M03 A3007 RMK A01 T01561033  RH  027%=      5-min Rain = 0
KSB1 110701Z 00000KT 16/M03 A3007 RMK A01 T01551033  RH  027%=      5-min Rain = 0
KSB1 110702Z 25001KT 16/M03 A3007 RMK A01 T01551034  RH  027%=      5-min Rain = 0
KSB1 110703Z 22001KT 16/M03 A3007 RMK A01 T01551032  RH  027%=      5-min Rain = 0
KSB1 110704Z 23000KT 16/M03 A3007 RMK A01 T01561031  RH  027%=      5-min Rain = 0
KSB1 110705Z 22001KT 16/M03 A3007 RMK A01 T01561031  RH  027%=      5-min Rain = 0
KSB1 110706Z 24001KT 16/M03 A3007 RMK A01 T01551033  RH  027%=      5-min Rain = 0
KSB1 110707Z 21001KT 16/M03 A3007 RMK A01 T01551032  RH  028%=      5-min Rain = 0
KSB1 110708Z 24002KT 16/M03 A3007 RMK A01 T01551031  RH  028%=      5-min Rain = 0
KSB1 110709Z 27003KT 16/M03 A3007 RMK A01 T01551030  RH  028%=      5-min Rain = 0
KSB1 110710Z 28002KT 16/M03 A3007 RMK A01 T01551030  RH  028%=      5-min Rain = 0
KSB1 110711Z 27001KT 16/M03 A3007 RMK A01 T01551029  RH  028%=      5-min Rain = 0
KSB1 110712Z 28001KT 16/M03 A3007 RMK A01 T01561029  RH  028%=      5-min Rain = 0
KSB1 110713Z 28002KT 16/M03 A3007 RMK A01 T01561029  RH  028%=      5-min Rain = 0
KSB1 110714Z 28002KT 16/M03 A3007 RMK A01 T01561028  RH  028%=      5-min Rain = 0
KSB1 110715Z 31001KT 16/M03 A3007 RMK A01 T01561028  RH  028%=      5-min Rain = 0
KSB1 110716Z 29002KT 16/M03 A3007 RMK A01 T01561028  RH  028%=      5-min Rain = 0
KSB1 110717Z 29002KT 16/M03 A3007 RMK A01 T01561028  RH  028%=      5-min Rain = 0
KSB1 110718Z 29002KT 16/M03 A3007 RMK A01 T01561026  RH  028%=      5-min Rain = 0
KSB1 110719Z 30001KT 16/M03 A3007 RMK A01 T01571026  RH  028%=      5-min Rain = 0
KSB1 110720Z 31002KT 16/M03 A3007 RMK A01 T01581026  RH  028%=      5-min Rain = 0
KSB1 110721Z 29006KT 16/M03 A3007 RMK A01 T01581026  RH  028%=      5-min Rain = 0
KSB1 110722Z 29006KT 16/M03 A3007 RMK A01 T01601025  RH  028%=      5-min Rain = 0
KSB1 110723Z 34003KT 16/M03 A3007 RMK A01 T01611026  RH  028%=      5-min Rain = 0
KSB1 110724Z 31004KT 16/M03 A3007 RMK A01 T01621026  RH  028%=      5-min Rain = 0
KSB1 110725Z 34004KT 16/M03 A3007 RMK A01 T01621027  RH  027%=      5-min Rain = 0
KSB1 110726Z 04005KT 16/M03 A3007 RMK A01 T01611029  RH  027%=      5-min Rain = 0
KSB1 110727Z 02003KT 16/M03 A3007 RMK A01 T01601031  RH  027%=      5-min Rain = 0
KSB1 110728Z 01001KT 16/M03 A3007 RMK A01 T01581031  RH  027%=      5-min Rain = 0
KSB1 110729Z 31002KT 16/M03 A3007 RMK A01 T01571030  RH  027%=      5-min Rain = 0
KSB1 110730Z 36002KT 16/M03 A3007 RMK A01 T01571029  RH  028%=      5-min Rain = 0
KSB1 110731Z 02001KT 16/M03 A3008 RMK A01 T01571030  RH  028%=      5-min Rain = 0
KSB1 110732Z 32001KT 16/M03 A3008 RMK A01 T01561030  RH  028%=      5-min Rain = 0
KSB1 110733Z 01001KT 16/M03 A3008 RMK A01 T01561030  RH  028%=      5-min Rain = 0
KSB1 110734Z 01001KT 16/M03 A3008 RMK A01 T01551030  RH  028%=      5-min Rain = 0
KSB1 110735Z 00001KT 16/M03 A3008 RMK A01 T01551030  RH  028%=      5-min Rain = 0
KSB1 110736Z 02003KT 15/M03 A3008 RMK A01 T01541029  RH  028%=      5-min Rain = 0
KSB1 110737Z 01004KT 15/M03 A3008 RMK A01 T01541030  RH  028%=      5-min Rain = 0
KSB1 110738Z 35003KT 15/M03 A3007 RMK A01 T01541031  RH  028%=      5-min Rain = 0
KSB1 110739Z 30004KT 15/M03 A3007 RMK A01 T01541030  RH  028%=      5-min Rain = 0
KSB1 110740Z 32003KT 15/M03 A3007 RMK A01 T01541026  RH  029%=      5-min Rain = 0
KSB1 110741Z 02003KT 16/M03 A3007 RMK A01 T01551028  RH  028%=      5-min Rain = 0
KSB1 110742Z 03001KT 16/M03 A3007 RMK A01 T01551030  RH  028%=      5-min Rain = 0
KSB1 110743Z 32002G7KT 15/M03 A3007 RMK A01 T01541031  RH  028%=      5-min Rain = 0
KSB1 110744Z 35004KT 15/M03 A3007 RMK A01 T01531027  RH  029%=      5-min Rain = 0
KSB1 110745Z 34003KT 15/M03 A3007 RMK A01 T01541025  RH  029%=      5-min Rain = 0
KSB1 110746Z 30004KT 15/M02 A3007 RMK A01 T01541024  RH  029%=      5-min Rain = 0
KSB1 110747Z 32007G12KT 15/M02 A3007 RMK A01 T01541021  RH  030%=      5-min Rain = 0
KSB1 110748Z 31009KT 16/M02 A3007 RMK A01 T01551015  RH  031%=      5-min Rain = 0
KSB1 110749Z 31008KT 16/M01 A3007 RMK A01 T01581011  RH  032%=      5-min Rain = 0
KSB1 110750Z 30009KT 16/M01 A3007 RMK A01 T01591010  RH  031%=      5-min Rain = 0
KSB1 110751Z 31009KT 16/M01 A3007 RMK A01 T01591010  RH  031%=      5-min Rain = 0
KSB1 110752Z 31010KT 16/M01 A3007 RMK A01 T01591010  RH  032%=      5-min Rain = 0
KSB1 110753Z 32011KT 16/M01 A3007 RMK A01 T01591009  RH  032%=      5-min Rain = 0
KSB1 110754Z 33008KT 16/M02 A3007 RMK A01 T01591016  RH  030%=      5-min Rain = 0
KSB1 110755Z 33009KT 16/M01 A3007 RMK A01 T01571014  RH  031%=      5-min Rain = 0
KSB1 110756Z 32010KT 16/M01 A3007 RMK A01 T01571012  RH  031%=      5-min Rain = 0
KSB1 110757Z 31010KT 16/M01 A3007 RMK A01 T01571010  RH  032%=      5-min Rain = 0
KSB1 110758Z 31008KT 16/M01 A3007 RMK A01 T01581010  RH  032%=      5-min Rain = 0
KSB1 110759Z 30007KT 16/M01 A3007 RMK A01 T01581010  RH  032%=      5-min Rain = 0
KSB1 110800Z 29007KT 16/M01 A3007 RMK A01 T01581009  RH  032%=      5-min Rain = 0
KSB1 110801Z 30008KT 16/M01 A3007 RMK A01 T01581008  RH  032%=      5-min Rain = 0
KSB1 110802Z 30007KT 16/M01 A3007 RMK A01 T01591009  RH  032%=      5-min Rain = 0
KSB1 110803Z 30009KT 16/M01 A3007 RMK A01 T01591009  RH  032%=      5-min Rain = 0
KSB1 110804Z 29009KT 16/M01 A3007 RMK A01 T01581008  RH  032%=      5-min Rain = 0
KSB1 110805Z 29007KT 16/M01 A3007 RMK A01 T01581008  RH  032%=      5-min Rain = 0
KSB1 110806Z 30007KT 16/M01 A3007 RMK A01 T01581008  RH  032%=      5-min Rain = 0
KSB1 110807Z 28006KT 16/M01 A3007 RMK A01 T01581008  RH  032%=      5-min Rain = 0
KSB1 110808Z 28007KT 16/M01 A3007 RMK A01 T01581008  RH  032%=      5-min Rain = 0
KSB1 110809Z 28006KT 16/M01 A3007 RMK A01 T01581008  RH  032%=      5-min Rain = 0
KSB1 110810Z 28007KT 16/M01 A3007 RMK A01 T01571009  RH  032%=      5-min Rain = 0
KSB1 110811Z 29005G14KT 16/M01 A3007 RMK A01 T01571009  RH  032%=      5-min Rain = 0
KSB1 110812Z 29007KT 16/M01 A3007 RMK A01 T01561009  RH  032%=      5-min Rain = 0
KSB1 110813Z 29006KT 16/M01 A3007 RMK A01 T01561008  RH  032%=      5-min Rain = 0
KSB1 110814Z 30005KT 16/M01 A3007 RMK A01 T01561008  RH  032%=      5-min Rain = 0
KSB1 110815Z 28003KT 16/M01 A3007 RMK A01 T01561009  RH  032%=      5-min Rain = 0
KSB1 110816Z 29004KT 16/M01 A3007 RMK A01 T01551009  RH  033%=      5-min Rain = 0
KSB1 110817Z 29004KT 16/M01 A3007 RMK A01 T01551008  RH  033%=      5-min Rain = 0
KSB1 110818Z 27003KT 16/M01 A3007 RMK A01 T01551009  RH  033%=      5-min Rain = 0
KSB1 110819Z 30005KT 15/M01 A3008 RMK A01 T01541010  RH  032%=      5-min Rain = 0
KSB1 110820Z 30006KT 15/M01 A3008 RMK A01 T01541009  RH  033%=      5-min Rain = 0
KSB1 110821Z 29005KT 15/M01 A3008 RMK A01 T01541008  RH  033%=      5-min Rain = 0
KSB1 110822Z 30004KT 16/M01 A3008 RMK A01 T01551008  RH  033%=      5-min Rain = 0
KSB1 110823Z 30005KT 16/M01 A3007 RMK A01 T01551008  RH  033%=      5-min Rain = 0
KSB1 110824Z 28003KT 16/M01 A3008 RMK A01 T01551008  RH  033%=      5-min Rain = 0
KSB1 110825Z 26003KT 15/M01 A3008 RMK A01 T01541009  RH  033%=      5-min Rain = 0
KSB1 110826Z 30004KT 15/M01 A3008 RMK A01 T01531010  RH  033%=      5-min Rain = 0
KSB1 110827Z 28004KT 15/M01 A3008 RMK A01 T01531008  RH  033%=      5-min Rain = 0
KSB1 110828Z 28003KT 15/M01 A3008 RMK A01 T01531008  RH  033%=      5-min Rain = 0
KSB1 110829Z 29003KT 15/M01 A3008 RMK A01 T01531007  RH  033%=      5-min Rain = 0
KSB1 110830Z 28002KT 15/M01 A3008 RMK A01 T01531007  RH  034%=      5-min Rain = 0
KSB1 110831Z 29004KT 15/M01 A3008 RMK A01 T01531007  RH  033%=      5-min Rain = 0
KSB1 110832Z 28003KT 15/M01 A3008 RMK A01 T01531005  RH  034%=      5-min Rain = 0
KSB1 110833Z 28005KT 15/M01 A3008 RMK A01 T01531005  RH  034%=      5-min Rain = 0
KSB1 110834Z 29003KT 15/M00 A3008 RMK A01 T01531003  RH  034%=      5-min Rain = 0
KSB1 110835Z 31002KT 15/M00 A3008 RMK A01 T01531003  RH  034%=      5-min Rain = 0
KSB1 110836Z 30005KT 15/M00 A3008 RMK A01 T01531002  RH  035%=      5-min Rain = 0
KSB1 110837Z 27004KT 15/M00 A3008 RMK A01 T01531001  RH  035%=      5-min Rain = 0
KSB1 110838Z 31004KT 15/M00 A3008 RMK A01 T01541001  RH  035%=      5-min Rain = 0
KSB1 110839Z 29004KT 16/00 A3008 RMK A01 T01550001  RH  035%=      5-min Rain = 0
KSB1 110840Z 30004KT 16/00 A3008 RMK A01 T01550001  RH  035%=      5-min Rain = 0
KSB1 110841Z 30005KT 16/00 A3008 RMK A01 T01550001  RH  035%=      5-min Rain = 0
KSB1 110842Z 30006KT 16/00 A3008 RMK A01 T01550001  RH  035%=      5-min Rain = 0
KSB1 110843Z 31009KT 16/00 A3008 RMK A01 T01550002  RH  035%=      5-min Rain = 0
KSB1 110844Z 31009KT 16/00 A3008 RMK A01 T01550002  RH  035%=      5-min Rain = 0
KSB1 110845Z 30009KT 16/00 A3008 RMK A01 T01560003  RH  035%=      5-min Rain = 0
KSB1 110846Z 31011KT 16/00 A3008 RMK A01 T01560003  RH  035%=      5-min Rain = 0
KSB1 110847Z 31009KT 16/00 A3008 RMK A01 T01560004  RH  035%=      5-min Rain = 0
KSB1 110848Z 32008KT 16/00 A3008 RMK A01 T01570004  RH  035%=      5-min Rain = 0
KSB1 110849Z 33010KT 16/00 A3008 RMK A01 T01570003  RH  035%=      5-min Rain = 0
KSB1 110850Z 32007KT 16/00 A3008 RMK A01 T01570003  RH  035%=      5-min Rain = 0
KSB1 110851Z 33006KT 16/00 A3008 RMK A01 T01560003  RH  035%=      5-min Rain = 0
KSB1 110852Z 32006KT 16/00 A3008 RMK A01 T01550002  RH  035%=      5-min Rain = 0
KSB1 110853Z 32005KT 16/00 A3008 RMK A01 T01550001  RH  035%=      5-min Rain = 0
KSB1 110854Z 34004KT 15/00 A3008 RMK A01 T01540001  RH  035%=      5-min Rain = 0
KSB1 110855Z 34004KT 15/00 A3007 RMK A01 T015400-0  RH  035%=      5-min Rain = 0
KSB1 110856Z 33004KT 15/00 A3007 RMK A01 T015300-0  RH  035%=      5-min Rain = 0
KSB1 110857Z 32003KT 15/M00 A3007 RMK A01 T01531001  RH  035%=      5-min Rain = 0
KSB1 110858Z 33002KT 15/M00 A3008 RMK A01 T01531001  RH  035%=      5-min Rain = 0
KSB1 110859Z 31005G10KT 15/M00 A3007 RMK A01 T01521001  RH  035%=      5-min Rain = 0
KSB1 110900Z 32008KT 15/00 A3007 RMK A01 T01520000  RH  035%=      5-min Rain = 0
KSB1 110901Z 32006KT 15/00 A3007 RMK A01 T015200-0  RH  035%=      5-min Rain = 0
KSB1 110902Z 32005KT 15/00 A3007 RMK A01 T01520001  RH  036%=      5-min Rain = 0
KSB1 110903Z 31005KT 15/00 A3007 RMK A01 T01520000  RH  035%=      5-min Rain = 0
KSB1 110904Z 33005KT 15/00 A3007 RMK A01 T01520000  RH  035%=      5-min Rain = 0
KSB1 110905Z 32004KT 15/00 A3007 RMK A01 T01520000  RH  035%=      5-min Rain = 0
KSB1 110906Z 34006KT 15/00 A3007 RMK A01 T01520001  RH  036%=      5-min Rain = 0
KSB1 110907Z 33005KT 15/00 A3007 RMK A01 T01520001  RH  036%=      5-min Rain = 0
KSB1 110908Z 32007KT 15/00 A3007 RMK A01 T01520001  RH  036%=      5-min Rain = 0
KSB1 110909Z 33005KT 15/00 A3007 RMK A01 T01520002  RH  036%=      5-min Rain = 0
KSB1 110910Z 33003KT 15/00 A3007 RMK A01 T01510001  RH  036%=      5-min Rain = 0
KSB1 110911Z 31003KT 15/00 A3007 RMK A01 T01510002  RH  036%=      5-min Rain = 0
KSB1 110912Z 33005KT 15/00 A3007 RMK A01 T01510002  RH  036%=      5-min Rain = 0
KSB1 110913Z 32004KT 15/00 A3007 RMK A01 T01510002  RH  036%=      5-min Rain = 0
KSB1 110914Z 30005KT 15/00 A3007 RMK A01 T01510003  RH  036%=      5-min Rain = 0
KSB1 110915Z 31006KT 15/00 A3007 RMK A01 T01520003  RH  036%=      5-min Rain = 0
KSB1 110916Z 32008KT 15/00 A3007 RMK A01 T01520003  RH  036%=      5-min Rain = 0
KSB1 110917Z 32008KT 15/00 A3007 RMK A01 T01520003  RH  036%=      5-min Rain = 0
KSB1 110918Z 30010KT 15/00 A3007 RMK A01 T01520003  RH  036%=      5-min Rain = 0
KSB1 110919Z 30012KT 15/00 A3007 RMK A01 T01520004  RH  036%=      5-min Rain = 0
KSB1 110920Z 29010KT 15/00 A3007 RMK A01 T01530004  RH  036%=      5-min Rain = 0
KSB1 110921Z 30009KT 15/00 A3007 RMK A01 T01530004  RH  036%=      5-min Rain = 0
KSB1 110922Z 29009KT 15/00 A3007 RMK A01 T01530003  RH  036%=      5-min Rain = 0
KSB1 110923Z 30011KT 15/00 A3007 RMK A01 T01530004  RH  036%=      5-min Rain = 0
KSB1 110924Z 28009KT 15/00 A3007 RMK A01 T01530003  RH  036%=      5-min Rain = 0
KSB1 110925Z 29009KT 15/00 A3007 RMK A01 T01530004  RH  036%=      5-min Rain = 0
KSB1 110926Z 29006KT 15/00 A3007 RMK A01 T01530004  RH  036%=      5-min Rain = 0
KSB1 110927Z 27004KT 15/00 A3007 RMK A01 T01530003  RH  036%=      5-min Rain = 0
KSB1 110928Z 27004KT 15/00 A3008 RMK A01 T01520003  RH  036%=      5-min Rain = 0
KSB1 110929Z 28005KT 15/00 A3008 RMK A01 T01520002  RH  036%=      5-min Rain = 0
KSB1 110930Z 30011KT 15/00 A3008 RMK A01 T01510003  RH  036%=      5-min Rain = 0
KSB1 110931Z 30010KT 15/00 A3008 RMK A01 T01520003  RH  036%=      5-min Rain = 0
KSB1 110932Z 30007KT 15/00 A3008 RMK A01 T01530003  RH  036%=      5-min Rain = 0
KSB1 110933Z 28007KT 15/00 A3008 RMK A01 T01530002  RH  036%=      5-min Rain = 0
KSB1 110934Z 29005KT 15/00 A3008 RMK A01 T01530002  RH  036%=      5-min Rain = 0
KSB1 110935Z 29005KT 15/00 A3007 RMK A01 T01530002  RH  036%=      5-min Rain = 0
KSB1 110936Z 28005KT 15/00 A3007 RMK A01 T01520002  RH  036%=      5-min Rain = 0
KSB1 110937Z 25005KT 15/00 A3007 RMK A01 T01520002  RH  036%=      5-min Rain = 0
KSB1 110938Z 24003KT 15/00 A3007 RMK A01 T01520002  RH  036%=      5-min Rain = 0
KSB1 110939Z 29006KT 15/00 A3007 RMK A01 T01510002  RH  036%=      5-min Rain = 0
KSB1 110940Z 29007KT 15/00 A3007 RMK A01 T01510002  RH  036%=      5-min Rain = 0
KSB1 110941Z 26004KT 15/00 A3007 RMK A01 T01520002  RH  036%=      5-min Rain = 0
KSB1 110942Z 27003KT 15/00 A3007 RMK A01 T01520002  RH  036%=      5-min Rain = 0
KSB1 110943Z 23002KT 15/00 A3007 RMK A01 T01520002  RH  036%=      5-min Rain = 0
KSB1 110944Z 22002KT 15/00 A3007 RMK A01 T01510002  RH  036%=      5-min Rain = 0
KSB1 110945Z 22003KT 15/00 A3007 RMK A01 T01500001  RH  036%=      5-min Rain = 0
KSB1 110946Z 23002KT 15/00 A3007 RMK A01 T01490001  RH  036%=      5-min Rain = 0
KSB1 110947Z 24003KT 15/00 A3007 RMK A01 T01490001  RH  036%=      5-min Rain = 0
KSB1 110948Z 21003KT 15/00 A3007 RMK A01 T01490001  RH  037%=      5-min Rain = 0
KSB1 110949Z 24003KT 15/00 A3007 RMK A01 T01480001  RH  037%=      5-min Rain = 0
KSB1 110950Z 24003KT 15/00 A3007 RMK A01 T01480001  RH  037%=      5-min Rain = 0
KSB1 110951Z 23004KT 15/00 A3007 RMK A01 T01470001  RH  037%=      5-min Rain = 0
KSB1 110952Z 25003KT 15/00 A3007 RMK A01 T01470001  RH  037%=      5-min Rain = 0
KSB1 110953Z 23004KT 15/00 A3008 RMK A01 T01470001  RH  037%=      5-min Rain = 0
KSB1 110954Z 24004KT 15/00 A3008 RMK A01 T01470001  RH  037%=      5-min Rain = 0
KSB1 110955Z 30005KT 15/00 A3008 RMK A01 T01480001  RH  037%=      5-min Rain = 0
KSB1 110956Z 29004KT 15/00 A3008 RMK A01 T01490000  RH  036%=      5-min Rain = 0
KSB1 110957Z 25004KT 15/00 A3008 RMK A01 T01490000  RH  036%=      5-min Rain = 0
KSB1 110958Z 24003KT 15/00 A3008 RMK A01 T01490000  RH  036%=      5-min Rain = 0
KSB1 110959Z 23004KT 15/00 A3008 RMK A01 T014900-0  RH  036%=      5-min Rain = 0
KSB1 111000Z 26004KT 15/00 A3008 RMK A01 T014800-0  RH  036%=      5-min Rain = 0
KSB1 111001Z 28004KT 15/00 A3008 RMK A01 T014800-0  RH  036%=      5-min Rain = 0
KSB1 111002Z 24005KT 15/M00 A3008 RMK A01 T01481001  RH  036%=      5-min Rain = 0
KSB1 111003Z 25004KT 15/00 A3008 RMK A01 T014800-0  RH  036%=      5-min Rain = 0
KSB1 111004Z 25004KT 15/00 A3008 RMK A01 T014700-0  RH  036%=      5-min Rain = 0
KSB1 111005Z 24004KT 15/00 A3008 RMK A01 T014700-0  RH  036%=      5-min Rain = 0
KSB1 111006Z 26003KT 15/M00 A3008 RMK A01 T01461001  RH  037%=      5-min Rain = 0
KSB1 111007Z 26004KT 15/M00 A3008 RMK A01 T01461001  RH  037%=      5-min Rain = 0
KSB1 111008Z 25004KT 15/M00 A3008 RMK A01 T01461001  RH  037%=      5-min Rain = 0
KSB1 111009Z 24004KT 15/M00 A3008 RMK A01 T01461001  RH  037%=      5-min Rain = 0
KSB1 111010Z 24004KT 15/M00 A3008 RMK A01 T01451001  RH  037%=      5-min Rain = 0
KSB1 111011Z 24004KT 15/00 A3008 RMK A01 T014500-0  RH  037%=      5-min Rain = 0
KSB1 111012Z 25004KT 15/M00 A3008 RMK A01 T01451001  RH  037%=      5-min Rain = 0
KSB1 111013Z 26003KT 15/M00 A3008 RMK A01 T01451001  RH  037%=      5-min Rain = 0
KSB1 111014Z 26004KT 15/M00 A3008 RMK A01 T01451001  RH  037%=      5-min Rain = 0
KSB1 111015Z 28003KT 15/M00 A3008 RMK A01 T01451001  RH  037%=      5-min Rain = 0
KSB1 111016Z 27003KT 15/M00 A3008 RMK A01 T01451001  RH  037%=      5-min Rain = 0
KSB1 111017Z 29003KT 15/00 A3008 RMK A01 T01460000  RH  037%=      5-min Rain = 0
KSB1 111018Z 28002KT 15/00 A3008 RMK A01 T01470001  RH  037%=      5-min Rain = 0
KSB1 111019Z 26004KT 15/00 A3008 RMK A01 T01480000  RH  037%=      5-min Rain = 0
KSB1 111020Z 27003KT 15/00 A3008 RMK A01 T014700-0  RH  036%=      5-min Rain = 0
KSB1 111021Z 30005KT 15/00 A3008 RMK A01 T01480000  RH  036%=      5-min Rain = 0
KSB1 111022Z 29006KT 15/00 A3008 RMK A01 T01480004  RH  037%=      5-min Rain = 0
KSB1 111023Z 28005KT 15/01 A3008 RMK A01 T01500005  RH  037%=      5-min Rain = 0
KSB1 111024Z 29006KT 15/00 A3008 RMK A01 T01500003  RH  037%=      5-min Rain = 0
KSB1 111025Z 29006KT 15/00 A3008 RMK A01 T01500004  RH  037%=      5-min Rain = 0
KSB1 111026Z 29005KT 15/00 A3009 RMK A01 T01510004  RH  037%=      5-min Rain = 0
KSB1 111027Z 31004KT 15/00 A3009 RMK A01 T01500004  RH  037%=      5-min Rain = 0
KSB1 111028Z 33004G9KT 15/01 A3008 RMK A01 T01500005  RH  037%=      5-min Rain = 0
KSB1 111029Z 33009KT 15/01 A3008 RMK A01 T01510008  RH  038%=      5-min Rain = 0
KSB1 111030Z 34006KT 15/01 A3009 RMK A01 T01520010  RH  038%=      5-min Rain = 0
KSB1 111031Z 01004KT 15/01 A3009 RMK A01 T01520008  RH  037%=      5-min Rain = 0
KSB1 111032Z 01004KT 15/01 A3009 RMK A01 T01520007  RH  037%=      5-min Rain = 0
KSB1 111033Z 01004KT 15/01 A3009 RMK A01 T01510006  RH  037%=      5-min Rain = 0
KSB1 111034Z 03004KT 15/01 A3009 RMK A01 T01500006  RH  037%=      5-min Rain = 0
KSB1 111035Z 03005KT 15/01 A3009 RMK A01 T01500006  RH  038%=      5-min Rain = 0
KSB1 111036Z 01004KT 15/01 A3009 RMK A01 T01490007  RH  038%=      5-min Rain = 0
KSB1 111037Z 36004KT 15/01 A3009 RMK A01 T01480006  RH  038%=      5-min Rain = 0
KSB1 111038Z 01005KT 15/01 A3009 RMK A01 T01480007  RH  038%=      5-min Rain = 0
KSB1 111039Z 01005KT 15/01 A3009 RMK A01 T01480006  RH  038%=      5-min Rain = 0
KSB1 111040Z 01005KT 15/01 A3009 RMK A01 T01480006  RH  038%=      5-min Rain = 0
KSB1 111041Z 02005KT 15/01 A3009 RMK A01 T01480007  RH  038%=      5-min Rain = 0
KSB1 111042Z 02004KT 15/01 A3009 RMK A01 T01480008  RH  038%=      5-min Rain = 0
KSB1 111043Z 00005KT 15/01 A3009 RMK A01 T01470008  RH  039%=      5-min Rain = 0
KSB1 111044Z 35004KT 15/01 A3009 RMK A01 T01470008  RH  039%=      5-min Rain = 0
KSB1 111045Z 35003KT 15/01 A3009 RMK A01 T01470009  RH  039%=      5-min Rain = 0
KSB1 111046Z 34005KT 15/01 A3009 RMK A01 T01470008  RH  039%=      5-min Rain = 0
KSB1 111047Z 35004KT 15/01 A3009 RMK A01 T01470009  RH  039%=      5-min Rain = 0
KSB1 111048Z 35003KT 15/01 A3009 RMK A01 T01480010  RH  039%=      5-min Rain = 0
KSB1 111049Z 35003KT 15/01 A3009 RMK A01 T01480011  RH  039%=      5-min Rain = 0
KSB1 111050Z 35005KT 15/01 A3009 RMK A01 T01480013  RH  040%=      5-min Rain = 0
KSB1 111051Z 36010KT 15/02 A3009 RMK A01 T01480017  RH  041%=      5-min Rain = 0
KSB1 111052Z 36011KT 15/02 A3009 RMK A01 T01490023  RH  042%=      5-min Rain = 0
KSB1 111053Z 00010KT 15/03 A3009 RMK A01 T01500025  RH  043%=      5-min Rain = 0
KSB1 111054Z 00011KT 15/03 A3009 RMK A01 T01510025  RH  043%=      5-min Rain = 0
KSB1 111055Z 00013KT 15/03 A3009 RMK A01 T01510026  RH  043%=      5-min Rain = 0
KSB1 111056Z 00012KT 15/03 A3009 RMK A01 T01510026  RH  043%=      5-min Rain = 0
KSB1 111057Z 00011KT 15/03 A3009 RMK A01 T01520025  RH  043%=      5-min Rain = 0
KSB1 111058Z 03013KT 15/03 A3009 RMK A01 T01520026  RH  043%=      5-min Rain = 0
KSB1 111059Z 03012KT 15/03 A301 RMK A01 T01490025  RH  043%=      5-min Rain = 0
KSB1 111100Z 04011KT 15/03 A301 RMK A01 T01450029  RH  045%=      5-min Rain = 0
KSB1 111101Z 03013KT 14/03 A301 RMK A01 T01420033  RH  048%=      5-min Rain = 0
KSB1 111102Z 02015KT 14/04 A301 RMK A01 T01390037  RH  050%=      5-min Rain = 0
KSB1 111103Z 02013G18KT 14/04 A301 RMK A01 T01370041  RH  052%=      5-min Rain = 0
KSB1 111104Z 02015KT 14/04 A301 RMK A01 T01360043  RH  053%=      5-min Rain = 0
KSB1 111105Z 03014KT 13/05 A301 RMK A01 T01340045  RH  055%=      5-min Rain = 0
KSB1 111106Z 02015KT 13/05 A301 RMK A01 T01330048  RH  056%=      5-min Rain = 0
KSB1 111107Z 02014KT 13/05 A301 RMK A01 T01320050  RH  057%=      5-min Rain = 0
KSB1 111108Z 02016KT 13/05 A301 RMK A01 T01300050  RH  058%=      5-min Rain = 0
KSB1 111109Z 02016KT 13/05 A301 RMK A01 T01290051  RH  059%=      5-min Rain = 0
KSB1 111110Z 02016KT 13/05 A301 RMK A01 T01290053  RH  060%=      5-min Rain = 0
KSB1 111111Z 02015KT 13/05 A301 RMK A01 T01270053  RH  061%=      5-min Rain = 0
KSB1 111112Z 02015KT 13/05 A301 RMK A01 T01270053  RH  061%=      5-min Rain = 0
KSB1 111113Z 03013KT 13/06 A3011 RMK A01 T01260055  RH  062%=      5-min Rain = 0
KSB1 111114Z 03012KT 13/06 A3011 RMK A01 T01250057  RH  063%=      5-min Rain = 0
KSB1 111115Z 03012KT 12/06 A3011 RMK A01 T01240059  RH  064%=      5-min Rain = 0
KSB1 111116Z 03011KT 12/06 A3011 RMK A01 T01230060  RH  065%=      5-min Rain = 0
KSB1 111117Z 02011KT 12/06 A3011 RMK A01 T01220063  RH  067%=      5-min Rain = 0
KSB1 111118Z 02014KT 12/06 A3011 RMK A01 T01210064  RH  068%=      5-min Rain = 0
KSB1 111119Z 02012KT 12/06 A3011 RMK A01 T01200064  RH  069%=      5-min Rain = 0
KSB1 111120Z 02012KT 12/07 A3011 RMK A01 T01200066  RH  070%=      5-min Rain = 0
KSB1 111121Z 02010KT 12/07 A3012 RMK A01 T01190068  RH  071%=      5-min Rain = 0
KSB1 111122Z 01013KT 12/07 A3012 RMK A01 T01180069  RH  072%=      5-min Rain = 0
KSB1 111123Z 02016KT 12/07 A3012 RMK A01 T01170070  RH  073%=      5-min Rain = 0
KSB1 111124Z 01014KT 12/07 A3012 RMK A01 T01170069  RH  073%=      5-min Rain = 0
KSB1 111125Z 02014KT 12/07 A3012 RMK A01 T01160071  RH  074%=      5-min Rain = 0
KSB1 111126Z 01016KT 12/07 A3012 RMK A01 T01150070  RH  074%=      5-min Rain = 0
KSB1 111127Z 02015KT 12/07 A3012 RMK A01 T01150071  RH  075%=      5-min Rain = 0
KSB1 111128Z 02016KT 11/07 A3012 RMK A01 T01140072  RH  076%=      5-min Rain = 0
KSB1 111129Z 01015KT 11/07 A3012 RMK A01 T01130073  RH  076%=      5-min Rain = 0
KSB1 111130Z 01016KT 11/07 A3012 RMK A01 T01130073  RH  077%=      5-min Rain = 0
KSB1 111131Z 01015KT 11/07 A3012 RMK A01 T01120073  RH  077%=      5-min Rain = 0
KSB1 111132Z 01015KT 11/07 A3012 RMK A01 T01120074  RH  077%=      5-min Rain = 0
KSB1 111133Z 01017KT 11/07 A3012 RMK A01 T01120073  RH  077%=      5-min Rain = 0
KSB1 111134Z 00018KT 11/07 A3012 RMK A01 T01110071  RH  076%=      5-min Rain = 0
KSB1 111135Z 00018KT 11/07 A3012 RMK A01 T01110073  RH  077%=      5-min Rain = 0
KSB1 111136Z 01018KT 11/07 A3012 RMK A01 T01110074  RH  078%=      5-min Rain = 0
KSB1 111137Z 00015KT 11/08 A3013 RMK A01 T01100075  RH  079%=      5-min Rain = 0
KSB1 111138Z 36017KT 11/08 A3013 RMK A01 T01090076  RH  080%=      5-min Rain = 0
KSB1 111139Z 00016G21KT 11/08 A3013 RMK A01 T01080077  RH  081%=      5-min Rain = 0
KSB1 111140Z 00018KT 11/08 A3013 RMK A01 T01070077  RH  082%=      5-min Rain = 0
KSB1 111141Z 00017KT 11/08 A3013 RMK A01 T01060077  RH  082%=      5-min Rain = 0
KSB1 111142Z 01015KT 11/08 A3013 RMK A01 T01050078  RH  083%=      5-min Rain = 0
KSB1 111143Z 01018KT 10/08 A3013 RMK A01 T01030078  RH  084%=      5-min Rain = 0
KSB1 111144Z 01016KT 10/08 A3014 RMK A01 T01020077  RH  085%=      5-min Rain = 0
KSB1 111145Z 00014KT 10/08 A3014 RMK A01 T01010077  RH  085%=      5-min Rain = 0
KSB1 111146Z 36014KT 10/08 A3014 RMK A01 T01000076  RH  085%=      5-min Rain = 0
KSB1 111147Z 00013KT 10/08 A3014 RMK A01 T00990077  RH  086%=      5-min Rain = 0
KSB1 111148Z 00013KT 10/08 A3014 RMK A01 T00980076  RH  086%=      5-min Rain = 0
KSB1 111149Z 00014KT 10/08 A3014 RMK A01 T00980075  RH  086%=      5-min Rain = 0
KSB1 111150Z 01014KT 10/08 A3014 RMK A01 T00970075  RH  086%=      5-min Rain = 0
KSB1 111151Z 00012KT 10/07 A3014 RMK A01 T00970074  RH  086%=      5-min Rain = 0
KSB1 111152Z 00014KT 10/07 A3014 RMK A01 T00960074  RH  086%=      5-min Rain = 0
KSB1 111153Z 00015KT 10/07 A3014 RMK A01 T00960073  RH  086%=      5-min Rain = 0
KSB1 111154Z 00015KT 10/07 A3014 RMK A01 T00960071  RH  085%=      5-min Rain = 0
KSB1 111155Z 01013KT 10/07 A3014 RMK A01 T00960071  RH  084%=      5-min Rain = 0.01
KSB1 111156Z 01011KT 10/07 A3014 RMK A01 T00960073  RH  086%=      5-min Rain = 0
KSB1 111157Z 00014KT 10/07 A3014 RMK A01 T00960073  RH  086%=      5-min Rain = 0
KSB1 111158Z 36012KT 10/07 A3014 RMK A01 T00950071  RH  085%=      5-min Rain = 0
KSB1 111159Z 00013KT 10/07 A3014 RMK A01 T00950071  RH  085%=      5-min Rain = 0
KSB1 111200Z 36015KT 10/07 A3014 RMK A01 T00960070  RH  084%=      5-min Rain = 0
KSB1 111201Z 00015KT 10/07 A3014 RMK A01 T00950069  RH  084%=      5-min Rain = 0
KSB1 111202Z 35010KT 10/07 A3014 RMK A01 T00960071  RH  085%=      5-min Rain = 0
KSB1 111203Z 35011G16KT 10/07 A3014 RMK A01 T00950072  RH  085%=      5-min Rain = 0
KSB1 111204Z 36010KT 10/07 A3014 RMK A01 T00950072  RH  086%=      5-min Rain = 0
KSB1 111205Z 35012G17KT 10/07 A3014 RMK A01 T00950072  RH  086%=      5-min Rain = 0
KSB1 111206Z 35013KT 10/07 A3014 RMK A01 T00950070  RH  085%=      5-min Rain = 0
KSB1 111207Z 35009KT 10/07 A3014 RMK A01 T00950070  RH  084%=      5-min Rain = 0
KSB1 111208Z 35009KT 10/07 A3014 RMK A01 T00950072  RH  086%=      5-min Rain = 0
KSB1 111209Z 36012KT 09/07 A3014 RMK A01 T00940072  RH  086%=      5-min Rain = 0
KSB1 111210Z 35011KT 10/07 A3014 RMK A01 T00950070  RH  085%=      5-min Rain = 0
KSB1 111211Z 36013KT 09/07 A3015 RMK A01 T00940070  RH  085%=      5-min Rain = 0
KSB1 111212Z 36011KT 10/07 A3015 RMK A01 T00950069  RH  084%=      5-min Rain = 0
KSB1 111213Z 35013KT 10/07 A3015 RMK A01 T00950070  RH  085%=      5-min Rain = 0
KSB1 111214Z 36014KT 10/07 A3015 RMK A01 T00950068  RH  083%=      5-min Rain = 0
KSB1 111215Z 36015G21KT 10/07 A3015 RMK A01 T00950066  RH  082%=      5-min Rain = 0.01
KSB1 111216Z 00015KT 09/07 A3015 RMK A01 T00940065  RH  082%=      5-min Rain = 0
KSB1 111217Z 36013KT 09/06 A3015 RMK A01 T00940063  RH  081%=      5-min Rain = 0
KSB1 111218Z 35014KT 09/06 A3015 RMK A01 T00930063  RH  081%=      5-min Rain = 0
KSB1 111219Z 35011KT 09/06 A3015 RMK A01 T00930061  RH  081%=      5-min Rain = 0
KSB1 111220Z 36012KT 09/06 A3015 RMK A01 T00930064  RH  082%=      5-min Rain = 0
KSB1 111221Z 35011KT 09/06 A3015 RMK A01 T00920064  RH  083%=      5-min Rain = 0
KSB1 111222Z 35010KT 09/07 A3015 RMK A01 T00920065  RH  083%=      5-min Rain = 0
KSB1 111223Z 35011KT 09/06 A3016 RMK A01 T00910063  RH  083%=      5-min Rain = 0
KSB1 111224Z 34014KT 09/06 A3016 RMK A01 T00910063  RH  082%=      5-min Rain = 0
KSB1 111225Z 35013KT 09/06 A3016 RMK A01 T00910061  RH  082%=      5-min Rain = 0
KSB1 111226Z 35011KT 09/06 A3016 RMK A01 T00910060  RH  081%=      5-min Rain = 0
KSB1 111227Z 35011KT 09/06 A3016 RMK A01 T00900060  RH  081%=      5-min Rain = 0
KSB1 111228Z 36012KT 09/06 A3016 RMK A01 T00900059  RH  081%=      5-min Rain = 0
KSB1 111229Z 35011KT 09/06 A3016 RMK A01 T00900058  RH  081%=      5-min Rain = 0
KSB1 111230Z 35011KT 09/06 A3016 RMK A01 T00890056  RH  080%=      5-min Rain = 0
KSB1 111231Z 36011KT 09/05 A3016 RMK A01 T00880053  RH  078%=      5-min Rain = 0
KSB1 111232Z 35010KT 09/05 A3016 RMK A01 T00880053  RH  079%=      5-min Rain = 0
KSB1 111233Z 35013KT 09/05 A3016 RMK A01 T00870051  RH  078%=      5-min Rain = 0
KSB1 111234Z 35012G17KT 09/05 A3016 RMK A01 T00860047  RH  076%=      5-min Rain = 0
KSB1 111235Z 35011KT 09/04 A3016 RMK A01 T00860042  RH  074%=      5-min Rain = 0
KSB1 111236Z 36012KT 09/04 A3016 RMK A01 T00860040  RH  073%=      5-min Rain = 0
KSB1 111237Z 35010KT 09/04 A3017 RMK A01 T00850038  RH  072%=      5-min Rain = 0
KSB1 111238Z 36014KT 08/04 A3016 RMK A01 T00840037  RH  072%=      5-min Rain = 0
KSB1 111239Z 36013KT 08/03 A3016 RMK A01 T00830032  RH  070%=      5-min Rain = 0
KSB1 111240Z 36013KT 08/03 A3016 RMK A01 T00820032  RH  070%=      5-min Rain = 0
KSB1 111241Z 36014KT 08/03 A3016 RMK A01 T00820029  RH  070%=      5-min Rain = 0
KSB1 111242Z 36011KT 08/03 A3017 RMK A01 T00810031  RH  070%=      5-min Rain = 0
KSB1 111243Z 00013KT 08/03 A3017 RMK A01 T00800030  RH  071%=      5-min Rain = 0
KSB1 111244Z 36013KT 08/03 A3017 RMK A01 T00800027  RH  069%=      5-min Rain = 0
KSB1 111245Z 35012KT 08/03 A3017 RMK A01 T00800027  RH  069%=      5-min Rain = 0
KSB1 111246Z 36013KT 08/03 A3017 RMK A01 T00790025  RH  069%=      5-min Rain = 0
KSB1 111247Z 36012KT 08/02 A3017 RMK A01 T00790022  RH  068%=      5-min Rain = 0
KSB1 111248Z 00011KT 08/03 A3017 RMK A01 T00780025  RH  069%=      5-min Rain = 0
KSB1 111249Z 00012KT 08/02 A3017 RMK A01 T00780024  RH  069%=      5-min Rain = 0
KSB1 111250Z 36011KT 08/02 A3017 RMK A01 T00770022  RH  068%=      5-min Rain = 0
KSB1 111251Z 01013KT 08/02 A3017 RMK A01 T00780017  RH  066%=      5-min Rain = 0
KSB1 111252Z 36013KT 08/01 A3017 RMK A01 T00780014  RH  064%=      5-min Rain = 0
KSB1 111253Z 00014KT 08/01 A3017 RMK A01 T00790012  RH  063%=      5-min Rain = 0
KSB1 111254Z 00011KT 08/01 A3017 RMK A01 T00800011  RH  062%=      5-min Rain = 0
KSB1 111255Z 00013KT 08/02 A3018 RMK A01 T00800015  RH  064%=      5-min Rain = 0
KSB1 111256Z 00013KT 08/01 A3018 RMK A01 T00800011  RH  062%=      5-min Rain = 0
KSB1 111257Z 00014KT 08/01 A3018 RMK A01 T00790007  RH  060%=      5-min Rain = 0
KSB1 111258Z 00013KT 08/01 A3018 RMK A01 T00800008  RH  061%=      5-min Rain = 0
KSB1 111259Z 01015KT 08/01 A3018 RMK A01 T00800006  RH  059%=      5-min Rain = 0
KSB1 111300Z 00010KT 08/01 A3018 RMK A01 T00810005  RH  059%=      5-min Rain = 0
KSB1 111301Z 00012KT 08/01 A3018 RMK A01 T00810009  RH  061%=      5-min Rain = 0
KSB1 111302Z 36010KT 08/01 A3018 RMK A01 T00810007  RH  060%=      5-min Rain = 0
KSB1 111303Z 35010KT 08/01 A3018 RMK A01 T00800010  RH  061%=      5-min Rain = 0
KSB1 111304Z 00010KT 08/01 A3018 RMK A01 T00800009  RH  061%=      5-min Rain = 0
KSB1 111305Z 36009KT 08/01 A3019 RMK A01 T00800011  RH  062%=      5-min Rain = 0
KSB1 111306Z 36011KT 08/01 A3019 RMK A01 T00790010  RH  061%=      5-min Rain = 0
KSB1 111307Z 00011KT 08/01 A3019 RMK A01 T00790006  RH  060%=      5-min Rain = 0
KSB1 111308Z 00012KT 08/00 A3019 RMK A01 T00800004  RH  059%=      5-min Rain = 0
KSB1 111309Z 00010KT 08/01 A3019 RMK A01 T00800006  RH  060%=      5-min Rain = 0
KSB1 111310Z 00011KT 08/01 A3019 RMK A01 T00800008  RH  060%=      5-min Rain = 0
KSB1 111311Z 01012KT 08/01 A3019 RMK A01 T00800007  RH  060%=      5-min Rain = 0
KSB1 111312Z 00010KT 08/01 A3019 RMK A01 T00800007  RH  060%=      5-min Rain = 0
KSB1 111313Z 00011KT 08/00 A3019 RMK A01 T00800004  RH  059%=      5-min Rain = 0
KSB1 111314Z 00009KT 08/00 A3019 RMK A01 T00800004  RH  059%=      5-min Rain = 0
KSB1 111315Z 36011KT 08/01 A3019 RMK A01 T00800005  RH  059%=      5-min Rain = 0
KSB1 111316Z 00010KT 08/00 A3019 RMK A01 T00800004  RH  059%=      5-min Rain = 0
KSB1 111317Z 00009KT 08/00 A3019 RMK A01 T00800001  RH  057%=      5-min Rain = 0
KSB1 111318Z 00010KT 08/00 A3019 RMK A01 T00800003  RH  058%=      5-min Rain = 0
KSB1 111319Z 36008KT 08/00 A3019 RMK A01 T00800003  RH  058%=      5-min Rain = 0
KSB1 111320Z 00010KT 08/01 A302 RMK A01 T00800007  RH  060%=      5-min Rain = 0
KSB1 111321Z 00009KT 08/00 A302 RMK A01 T00800003  RH  058%=      5-min Rain = 0
KSB1 111322Z 01009KT 08/00 A302 RMK A01 T00800004  RH  059%=      5-min Rain = 0
KSB1 111323Z 01009KT 08/00 A302 RMK A01 T00800004  RH  059%=      5-min Rain = 0
KSB1 111324Z 36010KT 08/01 A302 RMK A01 T00800006  RH  060%=      5-min Rain = 0
KSB1 111325Z 00010KT 08/00 A302 RMK A01 T00790003  RH  058%=      5-min Rain = 0
KSB1 111326Z 00009KT 08/00 A302 RMK A01 T00790003  RH  059%=      5-min Rain = 0
KSB1 111327Z 00009KT 08/00 A302 RMK A01 T00790003  RH  059%=      5-min Rain = 0
KSB1 111328Z 35009KT 08/01 A302 RMK A01 T00800005  RH  059%=      5-min Rain = 0
KSB1 111329Z 36011KT 08/00 A302 RMK A01 T00800004  RH  059%=      5-min Rain = 0
KSB1 111330Z 00009KT 08/00 A302 RMK A01 T00790002  RH  058%=      5-min Rain = 0
KSB1 111331Z 00009KT 08/00 A302 RMK A01 T00790002  RH  058%=      5-min Rain = 0
KSB1 111332Z 36009KT 08/00 A302 RMK A01 T00790003  RH  058%=      5-min Rain = 0
KSB1 111333Z 00010KT 08/01 A302 RMK A01 T00790005  RH  060%=      5-min Rain = 0
KSB1 111334Z 36010KT 08/00 A302 RMK A01 T00790002  RH  058%=      5-min Rain = 0
KSB1 111335Z 36010KT 08/00 A302 RMK A01 T00780002  RH  058%=      5-min Rain = 0
KSB1 111336Z 00011KT 08/00 A302 RMK A01 T00780003  RH  059%=      5-min Rain = 0
KSB1 111337Z 36011KT 08/00 A302 RMK A01 T00780001  RH  058%=      5-min Rain = 0
KSB1 111338Z 01010KT 08/01 A3021 RMK A01 T00780005  RH  060%=      5-min Rain = 0
KSB1 111339Z 01011KT 08/01 A302 RMK A01 T00780006  RH  061%=      5-min Rain = 0
KSB1 111340Z 01012KT 08/01 A302 RMK A01 T00770005  RH  060%=      5-min Rain = 0
KSB1 111341Z 01011KT 08/00 A302 RMK A01 T00770003  RH  059%=      5-min Rain = 0
KSB1 111342Z 01011KT 08/01 A302 RMK A01 T00770005  RH  061%=      5-min Rain = 0
KSB1 111343Z 01010KT 08/01 A302 RMK A01 T00770007  RH  062%=      5-min Rain = 0
KSB1 111344Z 02010KT 08/01 A302 RMK A01 T00760011  RH  063%=      5-min Rain = 0
KSB1 111345Z 02009KT 08/01 A302 RMK A01 T00750013  RH  065%=      5-min Rain = 0
KSB1 111346Z 02009KT 07/01 A302 RMK A01 T00740014  RH  066%=      5-min Rain = 0
KSB1 111347Z 02009KT 07/02 A302 RMK A01 T00730017  RH  067%=      5-min Rain = 0
KSB1 111348Z 02009KT 07/02 A302 RMK A01 T00720016  RH  068%=      5-min Rain = 0
KSB1 111349Z 02009KT 07/01 A302 RMK A01 T00720013  RH  066%=      5-min Rain = 0
KSB1 111350Z 01009KT 07/02 A302 RMK A01 T00720018  RH  069%=      5-min Rain = 0.01
KSB1 111351Z 01008KT 07/02 A302 RMK A01 T00710019  RH  069%=      5-min Rain = 0
KSB1 111352Z 01008KT 07/02 A3021 RMK A01 T00700022  RH  071%=      5-min Rain = 0
KSB1 111353Z 01008KT 07/02 A3021 RMK A01 T00700023  RH  072%=      5-min Rain = 0
KSB1 111354Z 01009KT 07/02 A3021 RMK A01 T00690021  RH  071%=      5-min Rain = 0
KSB1 111355Z 01008KT 07/02 A3021 RMK A01 T00690021  RH  072%=      5-min Rain = 0
KSB1 111356Z 01007KT 07/02 A3021 RMK A01 T00690023  RH  073%=      5-min Rain = 0
KSB1 111357Z 01008KT 07/02 A3021 RMK A01 T00680024  RH  074%=      5-min Rain = 0
KSB1 111358Z 01008KT 07/03 A3021 RMK A01 T00670026  RH  075%=      5-min Rain = 0
KSB1 111359Z 01008KT 07/03 A3021 RMK A01 T00670025  RH  075%=      5-min Rain = 0
KSB1 111400Z 02008KT 07/03 A3021 RMK A01 T00660025  RH  075%=      5-min Rain = 0
KSB1 111401Z 02009KT 07/03 A3021 RMK A01 T00660026  RH  076%=      5-min Rain = 0
KSB1 111402Z 02008KT 07/03 A3021 RMK A01 T00660026  RH  076%=      5-min Rain = 0
KSB1 111403Z 02007KT 07/03 A3021 RMK A01 T00650028  RH  077%=      5-min Rain = 0.01
KSB1 111404Z 03008KT 07/03 A3021 RMK A01 T00650031  RH  079%=      5-min Rain = 0
KSB1 111405Z 03007KT 06/03 A3022 RMK A01 T00640029  RH  078%=      5-min Rain = 0
KSB1 111406Z 10006KT 06/03 A3022 RMK A01 T00640031  RH  080%=      5-min Rain = 0
KSB1 111407Z 11008KT 06/04 A3022 RMK A01 T00640037  RH  083%=      5-min Rain = 0
KSB1 111408Z 11006KT 06/04 A3022 RMK A01 T00630038  RH  084%=      5-min Rain = 0
KSB1 111409Z 12006KT 06/04 A3022 RMK A01 T00630039  RH  085%=      5-min Rain = 0
KSB1 111410Z 11008KT 06/04 A3022 RMK A01 T00620038  RH  085%=      5-min Rain = 0
KSB1 111411Z 11007KT 06/04 A3022 RMK A01 T00610036  RH  084%=      5-min Rain = 0
KSB1 111412Z 11006KT 06/04 A3022 RMK A01 T00610037  RH  084%=      5-min Rain = 0
KSB1 111413Z 11006KT 06/04 A3023 RMK A01 T00610039  RH  086%=      5-min Rain = 0
KSB1 111414Z 11008KT 06/04 A3023 RMK A01 T00610040  RH  086%=      5-min Rain = 0.01
KSB1 111415Z 10007KT 06/04 A3023 RMK A01 T00600038  RH  086%=      5-min Rain = 0
KSB1 111416Z 11006KT 06/04 A3023 RMK A01 T00600038  RH  086%=      5-min Rain = 0
KSB1 111417Z 11007KT 06/04 A3023 RMK A01 T00590038  RH  086%=      5-min Rain = 0
KSB1 111418Z 11006KT 06/04 A3023 RMK A01 T00590038  RH  086%=      5-min Rain = 0
KSB1 111419Z 11005KT 06/04 A3023 RMK A01 T00590037  RH  085%=      5-min Rain = 0
KSB1 111420Z 11005KT 06/04 A3023 RMK A01 T00590037  RH  086%=      5-min Rain = 0
KSB1 111421Z 11006KT 06/04 A3023 RMK A01 T00590038  RH  086%=      5-min Rain = 0
KSB1 111422Z 12006KT 06/04 A3023 RMK A01 T00590038  RH  086%=      5-min Rain = 0
KSB1 111423Z 12004KT 06/04 A3023 RMK A01 T00590038  RH  086%=      5-min Rain = 0
KSB1 111424Z 12005KT 06/04 A3024 RMK A01 T00600041  RH  088%=      5-min Rain = 0
KSB1 111425Z 12006KT 06/04 A3024 RMK A01 T00590040  RH  087%=      5-min Rain = 0
KSB1 111426Z 12006KT 06/04 A3024 RMK A01 T00590038  RH  086%=      5-min Rain = 0
KSB1 111427Z 11005KT 06/04 A3024 RMK A01 T00590038  RH  087%=      5-min Rain = 0
KSB1 111428Z 12004KT 06/04 A3024 RMK A01 T00590040  RH  087%=      5-min Rain = 0
KSB1 111429Z 10005KT 06/04 A3024 RMK A01 T00600041  RH  088%=      5-min Rain = 0
KSB1 111430Z 10006KT 06/04 A3024 RMK A01 T00600041  RH  088%=      5-min Rain = 0
KSB1 111431Z 10007KT 06/04 A3024 RMK A01 T00590040  RH  087%=      5-min Rain = 0.01
KSB1 111432Z 10007KT 06/04 A3024 RMK A01 T00590039  RH  087%=      5-min Rain = 0
KSB1 111433Z 10005KT 06/04 A3024 RMK A01 T00590038  RH  086%=      5-min Rain = 0
KSB1 111434Z 10005KT 06/04 A3024 RMK A01 T00590040  RH  088%=      5-min Rain = 0
KSB1 111435Z 10005KT 06/04 A3024 RMK A01 T00590040  RH  087%=      5-min Rain = 0
KSB1 111436Z 11005KT 06/04 A3024 RMK A01 T00590038  RH  086%=      5-min Rain = 0
KSB1 111437Z 11004KT 06/04 A3024 RMK A01 T00590039  RH  087%=      5-min Rain = 0
KSB1 111438Z 10006KT 06/04 A3024 RMK A01 T00590040  RH  088%=      5-min Rain = 0
KSB1 111439Z 10006KT 06/04 A3024 RMK A01 T00590039  RH  087%=      5-min Rain = 0
KSB1 111440Z 10006KT 06/04 A3024 RMK A01 T00590039  RH  087%=      5-min Rain = 0
KSB1 111441Z 09006KT 06/04 A3024 RMK A01 T00590040  RH  088%=      5-min Rain = 0
KSB1 111442Z 09005KT 06/04 A3024 RMK A01 T00600040  RH  088%=      5-min Rain = 0
KSB1 111443Z 09005KT 06/04 A3024 RMK A01 T00600041  RH  088%=      5-min Rain = 0
KSB1 111444Z 09005KT 06/04 A3024 RMK A01 T00590042  RH  088%=      5-min Rain = 0
KSB1 111445Z 09007KT 06/04 A3024 RMK A01 T00590042  RH  089%=      5-min Rain = 0
KSB1 111446Z 09007KT 06/04 A3024 RMK A01 T00590039  RH  087%=      5-min Rain = 0.01
KSB1 111447Z 10006KT 06/04 A3024 RMK A01 T00590036  RH  085%=      5-min Rain = 0
KSB1 111448Z 09005KT 06/04 A3024 RMK A01 T00590036  RH  085%=      5-min Rain = 0
KSB1 111449Z 09006KT 06/04 A3024 RMK A01 T00590038  RH  086%=      5-min Rain = 0
KSB1 111450Z 08005KT 06/04 A3024 RMK A01 T00590038  RH  086%=      5-min Rain = 0
KSB1 111451Z 09005KT 06/04 A3024 RMK A01 T00590038  RH  086%=      5-min Rain = 0
KSB1 111452Z 08007KT 06/04 A3024 RMK A01 T00600040  RH  087%=      5-min Rain = 0
KSB1 111453Z 09006KT 06/04 A3024 RMK A01 T00590038  RH  086%=      5-min Rain = 0
KSB1 111454Z 08006KT 06/04 A3024 RMK A01 T00590038  RH  086%=      5-min Rain = 0
KSB1 111455Z 08006KT 06/04 A3024 RMK A01 T00590038  RH  086%=      5-min Rain = 0
KSB1 111456Z 08006KT 06/04 A3025 RMK A01 T00600037  RH  086%=      5-min Rain = 0
KSB1 111457Z 08006KT 06/04 A3025 RMK A01 T00590038  RH  086%=      5-min Rain = 0
KSB1 111458Z 08006KT 06/04 A3025 RMK A01 T00600037  RH  086%=      5-min Rain = 0
KSB1 111459Z 08005KT 06/04 A3025 RMK A01 T00590037  RH  086%=      5-min Rain = 0
KSB1 111500Z 09005KT 06/04 A3025 RMK A01 T00600038  RH  086%=      5-min Rain = 0
KSB1 111501Z 09005KT 06/04 A3025 RMK A01 T00600038  RH  086%=      5-min Rain = 0
KSB1 111502Z 10005KT 06/04 A3025 RMK A01 T00600038  RH  086%=      5-min Rain = 0
KSB1 111503Z 10005KT 06/04 A3025 RMK A01 T00600038  RH  086%=      5-min Rain = 0
KSB1 111504Z 10004KT 06/04 A3025 RMK A01 T00600038  RH  085%=      5-min Rain = 0
KSB1 111505Z 10003KT 06/04 A3025 RMK A01 T00600038  RH  086%=      5-min Rain = 0
KSB1 111506Z 10005KT 06/04 A3025 RMK A01 T00600038  RH  085%=      5-min Rain = 0
KSB1 111507Z 09004KT 06/04 A3025 RMK A01 T00600037  RH  085%=      5-min Rain = 0
KSB1 111508Z 09004KT 06/04 A3025 RMK A01 T00610039  RH  086%=      5-min Rain = 0
KSB1 111509Z 09004KT 06/04 A3026 RMK A01 T00610038  RH  086%=      5-min Rain = 0
KSB1 111510Z 09004KT 06/04 A3026 RMK A01 T00610038  RH  085%=      5-min Rain = 0
KSB1 111511Z 09004KT 06/04 A3026 RMK A01 T00610038  RH  085%=      5-min Rain = 0.01
KSB1 111512Z 10004KT 06/04 A3026 RMK A01 T00610038  RH  085%=      5-min Rain = 0
KSB1 111513Z 10003KT 06/04 A3026 RMK A01 T00610036  RH  084%=      5-min Rain = 0
KSB1 111514Z 10003KT 06/04 A3026 RMK A01 T00600036  RH  084%=      5-min Rain = 0
KSB1 111515Z 10003KT 06/03 A3026 RMK A01 T00600034  RH  083%=      5-min Rain = 0
KSB1 111516Z 10003KT 06/04 A3026 RMK A01 T00610035  RH  083%=      5-min Rain = 0
KSB1 111517Z 12002KT 06/03 A3026 RMK A01 T00610033  RH  082%=      5-min Rain = 0
KSB1 111518Z 12001KT 06/03 A3026 RMK A01 T00610033  RH  082%=      5-min Rain = 0
KSB1 111519Z 10002KT 06/04 A3026 RMK A01 T00610036  RH  084%=      5-min Rain = 0
KSB1 111520Z 11001KT 06/04 A3026 RMK A01 T00620039  RH  085%=      5-min Rain = 0.01
KSB1 111521Z 10001KT 06/04 A3026 RMK A01 T00620039  RH  085%=      5-min Rain = 0
KSB1 111522Z 10002KT 06/04 A3026 RMK A01 T00620037  RH  084%=      5-min Rain = 0
KSB1 111523Z 09002KT 06/04 A3026 RMK A01 T00620036  RH  083%=      5-min Rain = 0
KSB1 111524Z 09002KT 06/04 A3026 RMK A01 T00620037  RH  084%=      5-min Rain = 0
KSB1 111525Z 08002KT 06/04 A3026 RMK A01 T00620037  RH  084%=      5-min Rain = 0
KSB1 111526Z 08003KT 06/04 A3026 RMK A01 T00620037  RH  084%=      5-min Rain = 0
KSB1 111527Z 08002KT 06/04 A3026 RMK A01 T00630038  RH  084%=      5-min Rain = 0
KSB1 111528Z 09002KT 06/04 A3026 RMK A01 T00630035  RH  082%=      5-min Rain = 0
KSB1 111529Z 09002KT 06/04 A3026 RMK A01 T00630036  RH  083%=      5-min Rain = 0
KSB1 111530Z 11002KT 06/04 A3026 RMK A01 T00630039  RH  084%=      5-min Rain = 0
KSB1 111531Z 10003KT 06/04 A3026 RMK A01 T00640035  RH  082%=      5-min Rain = 0
KSB1 111532Z 10003KT 06/03 A3026 RMK A01 T00640034  RH  081%=      5-min Rain = 0
KSB1 111533Z 09003KT 06/04 A3026 RMK A01 T00640036  RH  082%=      5-min Rain = 0
KSB1 111534Z 09002KT 06/04 A3026 RMK A01 T00640036  RH  082%=      5-min Rain = 0
KSB1 111535Z 11002KT 06/04 A3026 RMK A01 T00640035  RH  082%=      5-min Rain = 0
KSB1 111536Z 11003KT 06/03 A3027 RMK A01 T00640034  RH  081%=      5-min Rain = 0
KSB1 111537Z 11003KT 06/03 A3027 RMK A01 T00640030  RH  079%=      5-min Rain = 0
KSB1 111538Z 10002KT 06/03 A3027 RMK A01 T00640032  RH  080%=      5-min Rain = 0
KSB1 111539Z 10004KT 07/04 A3027 RMK A01 T00650037  RH  083%=      5-min Rain = 0
KSB1 111540Z 11004KT 07/03 A3027 RMK A01 T00650032  RH  080%=      5-min Rain = 0
KSB1 111541Z 09004KT 07/04 A3027 RMK A01 T00650035  RH  081%=      5-min Rain = 0
KSB1 111542Z 10004KT 07/04 A3027 RMK A01 T00650035  RH  081%=      5-min Rain = 0
KSB1 111543Z 10004KT 07/03 A3027 RMK A01 T00650031  RH  079%=      5-min Rain = 0.01
KSB1 111544Z 11004KT 07/03 A3027 RMK A01 T00650034  RH  081%=      5-min Rain = 0
KSB1 111545Z 10003KT 07/03 A3027 RMK A01 T00660033  RH  079%=      5-min Rain = 0
KSB1 111546Z 11003KT 07/03 A3027 RMK A01 T00650029  RH  078%=      5-min Rain = 0
KSB1 111547Z 09004KT 07/03 A3027 RMK A01 T00660032  RH  079%=      5-min Rain = 0
KSB1 111548Z 09003KT 07/03 A3027 RMK A01 T00650033  RH  080%=      5-min Rain = 0
KSB1 111549Z 10004KT 07/04 A3027 RMK A01 T00660035  RH  081%=      5-min Rain = 0
KSB1 111550Z 10004KT 07/04 A3027 RMK A01 T00660035  RH  081%=      5-min Rain = 0
KSB1 111551Z 09003KT 07/04 A3027 RMK A01 T00660036  RH  081%=      5-min Rain = 0
KSB1 111552Z 10003KT 07/03 A3027 RMK A01 T00660031  RH  078%=      5-min Rain = 0
KSB1 111553Z 09004KT 07/03 A3026 RMK A01 T00660033  RH  079%=      5-min Rain = 0
KSB1 111554Z 11005KT 07/04 A3026 RMK A01 T00670039  RH  083%=      5-min Rain = 0
KSB1 111555Z 12004KT 07/04 A3027 RMK A01 T00670037  RH  081%=      5-min Rain = 0
KSB1 111556Z 12005KT 07/04 A3027 RMK A01 T00670035  RH  080%=      5-min Rain = 0
KSB1 111557Z 12005KT 07/03 A3027 RMK A01 T00660034  RH  080%=      5-min Rain = 0
KSB1 111558Z 11005KT 07/03 A3027 RMK A01 T00660034  RH  080%=      5-min Rain = 0
KSB1 111559Z 11005KT 07/04 A3027 RMK A01 T00660037  RH  082%=      5-min Rain = 0
KSB1 111600Z 12005KT 07/04 A3027 RMK A01 T00670036  RH  081%=      5-min Rain = 0
KSB1 111601Z 11004KT 07/03 A3027 RMK A01 T00660033  RH  079%=      5-min Rain = 0
KSB1 111602Z 10004KT 07/03 A3027 RMK A01 T00660034  RH  080%=      5-min Rain = 0
KSB1 111603Z 10004KT 07/04 A3027 RMK A01 T00660037  RH  082%=      5-min Rain = 0
KSB1 111604Z 11005KT 07/04 A3027 RMK A01 T00670039  RH  082%=      5-min Rain = 0
KSB1 111605Z 12005KT 07/04 A3027 RMK A01 T00680036  RH  080%=      5-min Rain = 0
KSB1 111606Z 11005KT 07/04 A3027 RMK A01 T00680035  RH  080%=      5-min Rain = 0
KSB1 111607Z 10004KT 07/03 A3027 RMK A01 T00680033  RH  079%=      5-min Rain = 0
KSB1 111608Z 09005KT 07/04 A3027 RMK A01 T00680037  RH  081%=      5-min Rain = 0
KSB1 111609Z 09006KT 07/03 A3027 RMK A01 T00680033  RH  079%=      5-min Rain = 0
KSB1 111610Z 09006KT 07/03 A3027 RMK A01 T00680033  RH  078%=      5-min Rain = 0.01
KSB1 111611Z 10005KT 07/03 A3027 RMK A01 T00680034  RH  079%=      5-min Rain = 0
KSB1 111612Z 10004KT 07/03 A3027 RMK A01 T00680032  RH  078%=      5-min Rain = 0
KSB1 111613Z 10003KT 07/03 A3027 RMK A01 T00680034  RH  079%=      5-min Rain = 0
KSB1 111614Z 09004KT 07/04 A3027 RMK A01 T00700043  RH  083%=      5-min Rain = 0
KSB1 111615Z 10005KT 07/04 A3027 RMK A01 T00710042  RH  082%=      5-min Rain = 0
KSB1 111616Z 11005KT 07/03 A3027 RMK A01 T00700030  RH  076%=      5-min Rain = 0
KSB1 111617Z 09006KT 07/03 A3027 RMK A01 T00690029  RH  076%=      5-min Rain = 0
KSB1 111618Z 10005KT 07/03 A3027 RMK A01 T00680029  RH  076%=      5-min Rain = 0
KSB1 111619Z 11004KT 07/03 A3027 RMK A01 T00690031  RH  077%=      5-min Rain = 0
KSB1 111620Z 10004KT 07/04 A3027 RMK A01 T00700039  RH  080%=      5-min Rain = 0
KSB1 111621Z 11005KT 07/04 A3027 RMK A01 T00710035  RH  078%=      5-min Rain = 0
KSB1 111622Z 10004KT 07/03 A3027 RMK A01 T00710034  RH  077%=      5-min Rain = 0
KSB1 111623Z 09003KT 07/04 A3027 RMK A01 T00710037  RH  079%=      5-min Rain = 0
KSB1 111624Z 10003KT 07/04 A3027 RMK A01 T00720039  RH  080%=      5-min Rain = 0
KSB1 111625Z 09003KT 07/04 A3027 RMK A01 T00720039  RH  079%=      5-min Rain = 0
KSB1 111626Z 07004KT 07/04 A3027 RMK A01 T00730042  RH  081%=      5-min Rain = 0
KSB1 111627Z 08006KT 07/04 A3027 RMK A01 T00740040  RH  079%=      5-min Rain = 0
KSB1 111628Z 08006KT 07/03 A3027 RMK A01 T00730034  RH  076%=      5-min Rain = 0
KSB1 111629Z 08005KT 07/03 A3027 RMK A01 T00730029  RH  074%=      5-min Rain = 0
KSB1 111630Z 11003KT 07/03 A3027 RMK A01 T00720030  RH  074%=      5-min Rain = 0
KSB1 111631Z 08002KT 07/03 A3027 RMK A01 T00720031  RH  075%=      5-min Rain = 0
KSB1 111632Z 09004KT 07/04 A3027 RMK A01 T00720039  RH  079%=      5-min Rain = 0
KSB1 111633Z 09006KT 07/04 A3027 RMK A01 T00730042  RH  080%=      5-min Rain = 0
KSB1 111634Z 09004KT 07/04 A3027 RMK A01 T00740039  RH  078%=      5-min Rain = 0
KSB1 111635Z 06004KT 07/04 A3027 RMK A01 T00740040  RH  079%=      5-min Rain = 0
KSB1 111636Z 07006KT 07/04 A3027 RMK A01 T00740037  RH  077%=      5-min Rain = 0
KSB1 111637Z 08004KT 07/03 A3027 RMK A01 T00740033  RH  075%=      5-min Rain = 0
KSB1 111638Z 05004KT 08/04 A3027 RMK A01 T00750040  RH  078%=      5-min Rain = 0
KSB1 111639Z 07006KT 08/04 A3027 RMK A01 T00750036  RH  076%=      5-min Rain = 0
KSB1 111640Z 07005KT 08/04 A3027 RMK A01 T00750037  RH  077%=      5-min Rain = 0
KSB1 111641Z 07005KT 08/04 A3027 RMK A01 T00750037  RH  077%=      5-min Rain = 0
KSB1 111642Z 06005KT 08/04 A3027 RMK A01 T00750036  RH  076%=      5-min Rain = 0
KSB1 111643Z 05005KT 08/03 A3027 RMK A01 T00750033  RH  075%=      5-min Rain = 0
KSB1 111644Z 06004KT 08/04 A3027 RMK A01 T00750036  RH  076%=      5-min Rain = 0
KSB1 111645Z 06003KT 08/04 A3027 RMK A01 T00750035  RH  075%=      5-min Rain = 0
KSB1 111646Z 06005KT 08/04 A3027 RMK A01 T00760039  RH  077%=      5-min Rain = 0
KSB1 111647Z 05004KT 08/03 A3027 RMK A01 T00760033  RH  074%=      5-min Rain = 0
KSB1 111648Z 03004KT 08/04 A3027 RMK A01 T00760038  RH  077%=      5-min Rain = 0
KSB1 111649Z 02005KT 08/04 A3027 RMK A01 T00770041  RH  078%=      5-min Rain = 0
KSB1 111650Z 02004KT 08/04 A3027 RMK A01 T00770038  RH  076%=      5-min Rain = 0
KSB1 111651Z 03004KT 08/04 A3027 RMK A01 T00770038  RH  076%=      5-min Rain = 0
KSB1 111652Z 04003KT 08/04 A3027 RMK A01 T00770037  RH  075%=      5-min Rain = 0
KSB1 111653Z 03004KT 08/03 A3027 RMK A01 T00770034  RH  074%=      5-min Rain = 0
KSB1 111654Z 03005KT 08/04 A3027 RMK A01 T00780037  RH  075%=      5-min Rain = 0
KSB1 111655Z 03003KT 08/04 A3027 RMK A01 T00780036  RH  075%=      5-min Rain = 0
KSB1 111656Z 03003KT 08/03 A3027 RMK A01 T00780032  RH  072%=      5-min Rain = 0
KSB1 111657Z 05004KT 08/04 A3027 RMK A01 T00790038  RH  075%=      5-min Rain = 0
KSB1 111658Z 05004KT 08/03 A3027 RMK A01 T00790034  RH  073%=      5-min Rain = 0
KSB1 111659Z 04003KT 08/03 A3027 RMK A01 T00790034  RH  073%=      5-min Rain = 0
KSB1 111700Z 04004KT 08/04 A3027 RMK A01 T00790036  RH  074%=      5-min Rain = 0
KSB1 111701Z 04004KT 08/04 A3027 RMK A01 T00800038  RH  075%=      5-min Rain = 0
KSB1 111702Z 04004KT 08/03 A3027 RMK A01 T00800034  RH  073%=      5-min Rain = 0
KSB1 111703Z 03004KT 08/03 A3027 RMK A01 T00790029  RH  071%=      5-min Rain = 0
KSB1 111704Z 03004KT 08/03 A3027 RMK A01 T00780034  RH  073%=      5-min Rain = 0
KSB1 111705Z 03005KT 08/04 A3028 RMK A01 T00790038  RH  075%=      5-min Rain = 0
KSB1 111706Z 03004KT 08/03 A3028 RMK A01 T00800034  RH  073%=      5-min Rain = 0
KSB1 111707Z 04004KT 08/03 A3028 RMK A01 T00790034  RH  073%=      5-min Rain = 0
KSB1 111708Z 05002KT 08/04 A3028 RMK A01 T00790036  RH  074%=      5-min Rain = 0
KSB1 111709Z 03004KT 08/04 A3028 RMK A01 T00800038  RH  075%=      5-min Rain = 0
KSB1 111710Z 03005KT 08/04 A3028 RMK A01 T00800035  RH  073%=      5-min Rain = 0
KSB1 111711Z 03004KT 08/03 A3028 RMK A01 T00800034  RH  072%=      5-min Rain = 0
KSB1 111712Z 03003KT 08/04 A3028 RMK A01 T00800035  RH  073%=      5-min Rain = 0
KSB1 111713Z 03005KT 08/04 A3028 RMK A01 T00800037  RH  074%=      5-min Rain = 0
KSB1 111714Z 03005KT 08/03 A3028 RMK A01 T00800034  RH  073%=      5-min Rain = 0
KSB1 111715Z 03004KT 08/03 A3028 RMK A01 T00800031  RH  071%=      5-min Rain = 0
KSB1 111716Z 02006KT 08/04 A3028 RMK A01 T00800038  RH  075%=      5-min Rain = 0
KSB1 111717Z 01005KT 08/03 A3028 RMK A01 T00800032  RH  072%=      5-min Rain = 0
KSB1 111718Z 00005KT 08/03 A3028 RMK A01 T00790029  RH  071%=      5-min Rain = 0
KSB1 111719Z 36004KT 08/04 A3028 RMK A01 T00780036  RH  074%=      5-min Rain = 0
KSB1 111720Z 01003KT 08/03 A3028 RMK A01 T00780034  RH  074%=      5-min Rain = 0
KSB1 111721Z 01004KT 08/04 A3028 RMK A01 T00790035  RH  074%=      5-min Rain = 0
KSB1 111722Z 00004KT 08/03 A3028 RMK A01 T00790031  RH  072%=      5-min Rain = 0
KSB1 111723Z 02003KT 08/03 A3028 RMK A01 T00790031  RH  072%=      5-min Rain = 0
KSB1 111724Z 01004KT 08/03 A3028 RMK A01 T00790029  RH  071%=      5-min Rain = 0
KSB1 111725Z 00005KT 08/04 A3028 RMK A01 T00800035  RH  074%=      5-min Rain = 0
KSB1 111726Z 00005KT 08/04 A3028 RMK A01 T00800037  RH  074%=      5-min Rain = 0
KSB1 111727Z 35006KT 08/04 A3028 RMK A01 T00800036  RH  074%=      5-min Rain = 0
KSB1 111728Z 01005KT 08/03 A3028 RMK A01 T00800032  RH  072%=      5-min Rain = 0
KSB1 111729Z 01004KT 08/03 A3028 RMK A01 T00790029  RH  071%=      5-min Rain = 0
KSB1 111730Z 00004KT 08/03 A3028 RMK A01 T00790030  RH  071%=      5-min Rain = 0
KSB1 111731Z 36004KT 08/04 A3028 RMK A01 T00790036  RH  074%=      5-min Rain = 0
KSB1 111732Z 35005KT 08/03 A3028 RMK A01 T00800033  RH  072%=      5-min Rain = 0
KSB1 111733Z 35006KT 08/03 A3028 RMK A01 T00800033  RH  072%=      5-min Rain = 0
KSB1 111734Z 36005KT 08/03 A3028 RMK A01 T00790033  RH  073%=      5-min Rain = 0
KSB1 111735Z 36005KT 08/03 A3028 RMK A01 T00790034  RH  073%=      5-min Rain = 0
KSB1 111736Z 35005KT 08/04 A3028 RMK A01 T00800037  RH  075%=      5-min Rain = 0
KSB1 111737Z 00006KT 08/04 A3028 RMK A01 T00800036  RH  074%=      5-min Rain = 0
KSB1 111738Z 01005KT 08/03 A3028 RMK A01 T00800031  RH  071%=      5-min Rain = 0
KSB1 111739Z 01005KT 08/04 A3028 RMK A01 T00800036  RH  074%=      5-min Rain = 0
KSB1 111740Z 01004KT 08/03 A3028 RMK A01 T00800034  RH  073%=      5-min Rain = 0
KSB1 111741Z 36005KT 08/04 A3028 RMK A01 T00810040  RH  075%=      5-min Rain = 0
KSB1 111742Z 36004KT 08/04 A3028 RMK A01 T00810038  RH  074%=      5-min Rain = 0
KSB1 111743Z 36004KT 08/04 A3028 RMK A01 T00810039  RH  075%=      5-min Rain = 0
KSB1 111744Z 01005KT 08/04 A3028 RMK A01 T00810041  RH  076%=      5-min Rain = 0
KSB1 111745Z 00005KT 08/04 A3028 RMK A01 T00810040  RH  076%=      5-min Rain = 0
KSB1 111746Z 34005KT 08/04 A3028 RMK A01 T00810043  RH  077%=      5-min Rain = 0
KSB1 111747Z 01004KT 08/04 A3028 RMK A01 T00810042  RH  077%=      5-min Rain = 0
KSB1 111748Z 01005KT 08/04 A3028 RMK A01 T00800038  RH  075%=      5-min Rain = 0
KSB1 111749Z 00005KT 08/04 A3028 RMK A01 T00800041  RH  076%=      5-min Rain = 0
KSB1 111750Z 36003KT 08/03 A3028 RMK A01 T00810034  RH  073%=      5-min Rain = 0
KSB1 111751Z 36005KT 08/04 A3028 RMK A01 T00800036  RH  073%=      5-min Rain = 0
KSB1 111752Z 00005KT 08/04 A3028 RMK A01 T00820044  RH  077%=      5-min Rain = 0
KSB1 111753Z 36004KT 08/04 A3028 RMK A01 T00840042  RH  075%=      5-min Rain = 0
KSB1 111754Z 35003KT 08/04 A3028 RMK A01 T00840038  RH  073%=      5-min Rain = 0
KSB1 111755Z 01003KT 08/04 A3028 RMK A01 T00840035  RH  071%=      5-min Rain = 0
KSB1 111756Z 02005KT 08/04 A3028 RMK A01 T00840035  RH  071%=      5-min Rain = 0
KSB1 111757Z 01004KT 08/03 A3028 RMK A01 T00840031  RH  069%=      5-min Rain = 0
KSB1 111758Z 36004KT 08/03 A3028 RMK A01 T00840034  RH  071%=      5-min Rain = 0
KSB1 111759Z 01005KT 09/04 A3027 RMK A01 T00850036  RH  072%=      5-min Rain = 0
KSB1 111800Z 02005KT 09/04 A3028 RMK A01 T00860038  RH  072%=      5-min Rain = 0
KSB1 111801Z 03003KT 09/03 A3028 RMK A01 T00870034  RH  070%=      5-min Rain = 0
KSB1 111802Z 02004KT 09/04 A3028 RMK A01 T00860039  RH  072%=      5-min Rain = 0
KSB1 111803Z 01006KT 09/04 A3028 RMK A01 T00870041  RH  072%=      5-min Rain = 0
KSB1 111804Z 01006KT 09/04 A3028 RMK A01 T00890040  RH  072%=      5-min Rain = 0
KSB1 111805Z 01006KT 09/04 A3028 RMK A01 T00890036  RH  069%=      5-min Rain = 0
KSB1 111806Z 01006KT 09/03 A3028 RMK A01 T00880034  RH  069%=      5-min Rain = 0
KSB1 111807Z 02005KT 09/03 A3028 RMK A01 T00880034  RH  069%=      5-min Rain = 0
KSB1 111808Z 04004KT 09/04 A3028 RMK A01 T00880037  RH  070%=      5-min Rain = 0
KSB1 111809Z 07006KT 09/04 A3028 RMK A01 T00900043  RH  072%=      5-min Rain = 0
KSB1 111810Z 07004KT 09/04 A3028 RMK A01 T00910035  RH  068%=      5-min Rain = 0
KSB1 111811Z 08002KT 09/03 A3028 RMK A01 T00900030  RH  066%=      5-min Rain = 0
KSB1 111812Z 08002KT 09/03 A3028 RMK A01 T00880027  RH  066%=      5-min Rain = 0
KSB1 111813Z 05004KT 09/03 A3028 RMK A01 T00870031  RH  068%=      5-min Rain = 0
KSB1 111814Z 04006KT 09/03 A3028 RMK A01 T00880032  RH  068%=      5-min Rain = 0
KSB1 111815Z 04006KT 09/03 A3028 RMK A01 T00880030  RH  067%=      5-min Rain = 0
KSB1 111816Z 05005KT 09/03 A3028 RMK A01 T00890033  RH  068%=      5-min Rain = 0
KSB1 111817Z 06004KT 09/03 A3028 RMK A01 T00900030  RH  066%=      5-min Rain = 0
KSB1 111818Z 08003KT 09/03 A3028 RMK A01 T00900032  RH  067%=      5-min Rain = 0
KSB1 111819Z 08003KT 09/04 A3028 RMK A01 T00920037  RH  068%=      5-min Rain = 0
KSB1 111820Z 07002KT 09/03 A3028 RMK A01 T00920033  RH  066%=      5-min Rain = 0
KSB1 111821Z 07001KT 09/04 A3028 RMK A01 T00920036  RH  068%=      5-min Rain = 0
KSB1 111822Z 07003KT 09/04 A3028 RMK A01 T00930036  RH  068%=      5-min Rain = 0
KSB1 111823Z 06005KT 09/04 A3027 RMK A01 T00940036  RH  067%=      5-min Rain = 0
KSB1 111824Z 07006KT 09/03 A3028 RMK A01 T00940034  RH  066%=      5-min Rain = 0
KSB1 111825Z 07006KT 09/04 A3027 RMK A01 T00940039  RH  069%=      5-min Rain = 0
KSB1 111826Z 06005KT 10/03 A3028 RMK A01 T00950033  RH  065%=      5-min Rain = 0
KSB1 111827Z 09006KT 10/03 A3028 RMK A01 T00950034  RH  066%=      5-min Rain = 0
KSB1 111828Z 10005KT 10/04 A3028 RMK A01 T00950035  RH  066%=      5-min Rain = 0
KSB1 111829Z 13003KT 10/04 A3028 RMK A01 T00950039  RH  068%=      5-min Rain = 0
KSB1 111830Z 09003KT 10/04 A3028 RMK A01 T00970041  RH  069%=      5-min Rain = 0
KSB1 111831Z 06003KT 10/03 A3028 RMK A01 T00960031  RH  064%=      5-min Rain = 0
KSB1 111832Z 07004KT 10/03 A3027 RMK A01 T00950031  RH  064%=      5-min Rain = 0
KSB1 111833Z 08004KT 10/03 A3027 RMK A01 T00950034  RH  066%=      5-min Rain = 0
KSB1 111834Z 07003KT 09/02 A3027 RMK A01 T00940023  RH  061%=      5-min Rain = 0
KSB1 111835Z 10002KT 09/03 A3027 RMK A01 T00930025  RH  062%=      5-min Rain = 0
KSB1 111836Z 10005KT 09/03 A3027 RMK A01 T00940032  RH  065%=      5-min Rain = 0
KSB1 111837Z 08006KT 10/03 A3027 RMK A01 T00950033  RH  065%=      5-min Rain = 0
KSB1 111838Z 07006KT 10/03 A3027 RMK A01 T00950034  RH  065%=      5-min Rain = 0
KSB1 111839Z 06006KT 10/03 A3027 RMK A01 T00950027  RH  062%=      5-min Rain = 0
KSB1 111840Z 08007KT 10/03 A3027 RMK A01 T00950029  RH  063%=      5-min Rain = 0
KSB1 111841Z 07005KT 10/03 A3027 RMK A01 T00950026  RH  062%=      5-min Rain = 0
KSB1 111842Z 08007KT 09/03 A3027 RMK A01 T00940027  RH  063%=      5-min Rain = 0
KSB1 111843Z 07006KT 10/03 A3027 RMK A01 T00950031  RH  064%=      5-min Rain = 0
KSB1 111844Z 09005KT 10/03 A3027 RMK A01 T00960029  RH  063%=      5-min Rain = 0
KSB1 111845Z 09005KT 10/03 A3027 RMK A01 T00970030  RH  063%=      5-min Rain = 0
KSB1 111846Z 11006KT 10/03 A3027 RMK A01 T00980033  RH  064%=      5-min Rain = 0
KSB1 111847Z 09008KT 10/03 A3027 RMK A01 T00990034  RH  064%=      5-min Rain = 0
KSB1 111848Z 11006KT 10/03 A3027 RMK A01 T00990027  RH  061%=      5-min Rain = 0
KSB1 111849Z 11004KT 10/03 A3027 RMK A01 T00990028  RH  061%=      5-min Rain = 0
KSB1 111850Z 09004KT 10/03 A3027 RMK A01 T01000029  RH  061%=      5-min Rain = 0
KSB1 111851Z 09008KT 10/03 A3027 RMK A01 T01010029  RH  061%=      5-min Rain = 0
KSB1 111852Z 09008KT 10/03 A3027 RMK A01 T01020026  RH  060%=      5-min Rain = 0
KSB1 111853Z 08007KT 10/02 A3027 RMK A01 T01000020  RH  058%=      5-min Rain = 0
KSB1 111854Z 09006KT 10/03 A3027 RMK A01 T00990026  RH  060%=      5-min Rain = 0
KSB1 111855Z 12006KT 10/03 A3027 RMK A01 T01000025  RH  060%=      5-min Rain = 0
KSB1 111856Z 12005KT 10/02 A3027 RMK A01 T01000023  RH  059%=      5-min Rain = 0
KSB1 111857Z 10006KT 10/03 A3027 RMK A01 T01010027  RH  060%=      5-min Rain = 0
KSB1 111858Z 11008KT 10/03 A3027 RMK A01 T01020026  RH  059%=      5-min Rain = 0
KSB1 111859Z 10008KT 10/02 A3027 RMK A01 T01010021  RH  058%=      5-min Rain = 0
KSB1 111900Z 10007KT 10/02 A3027 RMK A01 T01000022  RH  058%=      5-min Rain = 0
KSB1 111901Z 06006KT 10/02 A3027 RMK A01 T01000022  RH  058%=      5-min Rain = 0
KSB1 111902Z 07005KT 10/02 A3027 RMK A01 T01000022  RH  058%=      5-min Rain = 0
KSB1 111903Z 10006KT 10/03 A3027 RMK A01 T01010025  RH  059%=      5-min Rain = 0
KSB1 111904Z 09005KT 10/02 A3027 RMK A01 T01020022  RH  058%=      5-min Rain = 0
KSB1 111905Z 11006KT 10/02 A3026 RMK A01 T01020024  RH  058%=      5-min Rain = 0
KSB1 111906Z 12007KT 10/03 A3026 RMK A01 T01030025  RH  058%=      5-min Rain = 0
KSB1 111907Z 08006KT 10/02 A3026 RMK A01 T01040023  RH  057%=      5-min Rain = 0
KSB1 111908Z 08004KT 10/02 A3026 RMK A01 T01030018  RH  055%=      5-min Rain = 0
KSB1 111909Z 08004KT 10/02 A3026 RMK A01 T01020018  RH  056%=      5-min Rain = 0
KSB1 111910Z 08005KT 10/02 A3026 RMK A01 T01020021  RH  057%=      5-min Rain = 0
KSB1 111911Z 08007KT 10/02 A3026 RMK A01 T01030024  RH  058%=      5-min Rain = 0
KSB1 111912Z 06007KT 11/03 A3026 RMK A01 T01050031  RH  060%=      5-min Rain = 0
KSB1 111913Z 07008KT 11/03 A3026 RMK A01 T01070026  RH  057%=      5-min Rain = 0
KSB1 111914Z 06005KT 11/02 A3026 RMK A01 T01050017  RH  055%=      5-min Rain = 0
KSB1 111915Z 06004KT 10/03 A3026 RMK A01 T01040026  RH  058%=      5-min Rain = 0
KSB1 111916Z 07005KT 11/02 A3026 RMK A01 T01060022  RH  056%=      5-min Rain = 0
KSB1 111917Z 07005KT 11/02 A3026 RMK A01 T01060018  RH  054%=      5-min Rain = 0
KSB1 111918Z 07005KT 11/02 A3026 RMK A01 T01050016  RH  054%=      5-min Rain = 0
KSB1 111919Z 10005KT 11/02 A3026 RMK A01 T01050022  RH  056%=      5-min Rain = 0
KSB1 111920Z 12005KT 11/02 A3026 RMK A01 T01060024  RH  057%=      5-min Rain = 0
KSB1 111921Z 10006KT 11/02 A3026 RMK A01 T01080023  RH  056%=      5-min Rain = 0
KSB1 111922Z 09003KT 11/02 A3026 RMK A01 T01070016  RH  053%=      5-min Rain = 0
KSB1 111923Z 11004KT 11/02 A3026 RMK A01 T01060017  RH  054%=      5-min Rain = 0
KSB1 111924Z 12006KT 11/02 A3026 RMK A01 T01060020  RH  056%=      5-min Rain = 0
KSB1 111925Z 13006KT 11/02 A3026 RMK A01 T01070017  RH  054%=      5-min Rain = 0
KSB1 111926Z 09005KT 11/02 A3026 RMK A01 T01080022  RH  055%=      5-min Rain = 0
KSB1 111927Z 07005KT 11/02 A3025 RMK A01 T01090019  RH  054%=      5-min Rain = 0
KSB1 111928Z 08003KT 11/01 A3025 RMK A01 T01090014  RH  052%=      5-min Rain = 0
KSB1 111929Z 07004KT 11/02 A3025 RMK A01 T01080016  RH  053%=      5-min Rain = 0
KSB1 111930Z 09007KT 11/02 A3025 RMK A01 T01090023  RH  055%=      5-min Rain = 0
KSB1 111931Z 11005KT 11/02 A3025 RMK A01 T01120021  RH  054%=      5-min Rain = 0
KSB1 111932Z 07005KT 11/02 A3025 RMK A01 T01120023  RH  054%=      5-min Rain = 0
KSB1 111933Z 06004KT 11/02 A3025 RMK A01 T01130021  RH  053%=      5-min Rain = 0
KSB1 111934Z 06005KT 11/02 A3025 RMK A01 T01130017  RH  052%=      5-min Rain = 0
KSB1 111935Z 07005KT 11/02 A3025 RMK A01 T01110021  RH  054%=      5-min Rain = 0
KSB1 111936Z 10005KT 11/02 A3025 RMK A01 T01130022  RH  053%=      5-min Rain = 0
KSB1 111937Z 11005KT 11/02 A3025 RMK A01 T01120015  RH  051%=      5-min Rain = 0
KSB1 111938Z 12004KT 11/02 A3025 RMK A01 T01100016  RH  052%=      5-min Rain = 0
KSB1 111939Z 12005KT 11/02 A3025 RMK A01 T01110020  RH  053%=      5-min Rain = 0
KSB1 111940Z 12009KT 11/02 A3025 RMK A01 T01130021  RH  053%=      5-min Rain = 0
KSB1 111941Z 12008KT 11/02 A3025 RMK A01 T01130017  RH  051%=      5-min Rain = 0
KSB1 111942Z 10009KT 11/02 A3025 RMK A01 T01130018  RH  052%=      5-min Rain = 0
KSB1 111943Z 10008KT 11/01 A3025 RMK A01 T01120013  RH  050%=      5-min Rain = 0
KSB1 111944Z 10005KT 11/01 A3025 RMK A01 T01090010  RH  050%=      5-min Rain = 0
KSB1 111945Z 12003KT 11/01 A3025 RMK A01 T01090011  RH  051%=      5-min Rain = 0
KSB1 111946Z 11004KT 11/01 A3025 RMK A01 T01080007  RH  049%=      5-min Rain = 0
KSB1 111947Z 11006KT 11/01 A3024 RMK A01 T01090012  RH  051%=      5-min Rain = 0
KSB1 111948Z 11008KT 11/02 A3024 RMK A01 T01120017  RH  052%=      5-min Rain = 0
KSB1 111949Z 12008KT 11/01 A3024 RMK A01 T01130013  RH  050%=      5-min Rain = 0
KSB1 111950Z 11009KT 11/01 A3024 RMK A01 T01130014  RH  050%=      5-min Rain = 0
KSB1 111951Z 11008KT 12/02 A3024 RMK A01 T01150018  RH  051%=      5-min Rain = 0
KSB1 111952Z 09008KT 12/02 A3024 RMK A01 T01170020  RH  051%=      5-min Rain = 0
KSB1 111953Z 11011KT 12/02 A3024 RMK A01 T01190019  RH  050%=      5-min Rain = 0
KSB1 111954Z 10010KT 12/01 A3024 RMK A01 T01180010  RH  047%=      5-min Rain = 0
KSB1 111955Z 11009KT 12/01 A3024 RMK A01 T01150010  RH  048%=      5-min Rain = 0
KSB1 111956Z 10007KT 12/01 A3024 RMK A01 T01150011  RH  049%=      5-min Rain = 0
KSB1 111957Z 10007KT 12/01 A3024 RMK A01 T01150010  RH  049%=      5-min Rain = 0
KSB1 111958Z 10009KT 12/01 A3024 RMK A01 T01150012  RH  049%=      5-min Rain = 0
KSB1 111959Z 10008KT 12/02 A3024 RMK A01 T01180015  RH  049%=      5-min Rain = 0
KSB1 112000Z 12011KT 12/01 A3024 RMK A01 T01180014  RH  049%=      5-min Rain = 0
KSB1 112001Z 13012KT 12/01 A3024 RMK A01 T01170011  RH  048%=      5-min Rain = 0
KSB1 112002Z 11011KT 12/01 A3024 RMK A01 T01160009  RH  048%=      5-min Rain = 0
KSB1 112003Z 11012KT 12/01 A3024 RMK A01 T01160009  RH  048%=      5-min Rain = 0
KSB1 112004Z 12011KT 11/00 A3024 RMK A01 T01130004  RH  047%=      5-min Rain = 0
KSB1 112005Z 14009G14KT 11/01 A3024 RMK A01 T01130006  RH  048%=      5-min Rain = 0
KSB1 112006Z 12013KT 11/01 A3024 RMK A01 T01140009  RH  048%=      5-min Rain = 0
KSB1 112007Z 12012KT 11/01 A3024 RMK A01 T01140005  RH  047%=      5-min Rain = 0
KSB1 112008Z 11008KT 11/01 A3024 RMK A01 T01130007  RH  048%=      5-min Rain = 0
KSB1 112009Z 10009KT 11/01 A3023 RMK A01 T01130007  RH  048%=      5-min Rain = 0
KSB1 112010Z 11008KT 11/00 A3023 RMK A01 T01130003  RH  047%=      5-min Rain = 0
KSB1 112011Z 12010G16KT 11/01 A3023 RMK A01 T01130005  RH  047%=      5-min Rain = 0
KSB1 112012Z 14010KT 11/00 A3023 RMK A01 T01130000  RH  046%=      5-min Rain = 0
KSB1 112013Z 13011KT 11/00 A3023 RMK A01 T01130003  RH  047%=      5-min Rain = 0
KSB1 112014Z 12010KT 12/01 A3023 RMK A01 T01150006  RH  047%=      5-min Rain = 0
KSB1 112015Z 11011KT 12/01 A3023 RMK A01 T01150005  RH  046%=      5-min Rain = 0
KSB1 112016Z 12011KT 12/01 A3023 RMK A01 T01150005  RH  047%=      5-min Rain = 0
KSB1 112017Z 12011KT 12/00 A3023 RMK A01 T01150003  RH  046%=      5-min Rain = 0
KSB1 112018Z 11010KT 11/00 A3023 RMK A01 T01140003  RH  046%=      5-min Rain = 0
KSB1 112019Z 10009KT 11/00 A3023 RMK A01 T01140001  RH  046%=      5-min Rain = 0
KSB1 112020Z 09009KT 11/00 A3023 RMK A01 T01140001  RH  046%=      5-min Rain = 0
KSB1 112021Z 09010KT 11/01 A3023 RMK A01 T01140006  RH  047%=      5-min Rain = 0
KSB1 112022Z 12013KT 12/01 A3023 RMK A01 T01150005  RH  047%=      5-min Rain = 0
KSB1 112023Z 12012KT 11/00 A3023 RMK A01 T011400-0  RH  045%=      5-min Rain = 0
KSB1 112024Z 13013KT 11/00 A3023 RMK A01 T01130003  RH  047%=      5-min Rain = 0
KSB1 112025Z 12012KT 11/00 A3023 RMK A01 T01140004  RH  047%=      5-min Rain = 0
KSB1 112026Z 13014KT 11/01 A3023 RMK A01 T01140005  RH  047%=      5-min Rain = 0
KSB1 112027Z 12010KT 12/00 A3023 RMK A01 T01150003  RH  046%=      5-min Rain = 0
KSB1 112028Z 12013KT 11/00 A3023 RMK A01 T01140003  RH  046%=      5-min Rain = 0
KSB1 112029Z 11010KT 11/M00 A3023 RMK A01 T01131002  RH  045%=      5-min Rain = 0
KSB1 112030Z 10013KT 11/00 A3023 RMK A01 T01120000  RH  046%=      5-min Rain = 0
KSB1 112031Z 12012KT 11/M00 A3023 RMK A01 T01121002  RH  045%=      5-min Rain = 0
KSB1 112032Z 13014KT 11/M00 A3023 RMK A01 T01121001  RH  046%=      5-min Rain = 0
KSB1 112033Z 13011KT 11/00 A3023 RMK A01 T01120002  RH  046%=      5-min Rain = 0
KSB1 112034Z 12014KT 11/M00 A3023 RMK A01 T01131001  RH  045%=      5-min Rain = 0
KSB1 112035Z 12013KT 11/00 A3022 RMK A01 T011300-0  RH  046%=      5-min Rain = 0
KSB1 112036Z 12012KT 11/00 A3022 RMK A01 T011200-0  RH  046%=      5-min Rain = 0
KSB1 112037Z 11012KT 11/00 A3022 RMK A01 T01130001  RH  046%=      5-min Rain = 0
KSB1 112038Z 11013KT 11/00 A3022 RMK A01 T01140001  RH  046%=      5-min Rain = 0
KSB1 112039Z 11012KT 11/M00 A3022 RMK A01 T01141001  RH  045%=      5-min Rain = 0
KSB1 112040Z 12011KT 11/M00 A3022 RMK A01 T01141004  RH  044%=      5-min Rain = 0
KSB1 112041Z 12011KT 11/M00 A3022 RMK A01 T01141001  RH  045%=      5-min Rain = 0
KSB1 112042Z 12010KT 11/M00 A3022 RMK A01 T01141003  RH  044%=      5-min Rain = 0
KSB1 112043Z 12011KT 12/M00 A3022 RMK A01 T01151001  RH  045%=      5-min Rain = 0
KSB1 112044Z 12013KT 12/M00 A3022 RMK A01 T01151001  RH  045%=      5-min Rain = 0
KSB1 112045Z 11014KT 12/00 A3022 RMK A01 T01160000  RH  045%=      5-min Rain = 0
KSB1 112046Z 10011KT 12/M01 A3022 RMK A01 T01161005  RH  043%=      5-min Rain = 0
KSB1 112047Z 10010KT 12/M00 A3022 RMK A01 T01161004  RH  044%=      5-min Rain = 0
KSB1 112048Z 09010KT 12/M00 A3022 RMK A01 T01161003  RH  044%=      5-min Rain = 0
KSB1 112049Z 10010KT 12/00 A3022 RMK A01 T01170002  RH  045%=      5-min Rain = 0
KSB1 112050Z 10012KT 12/00 A3022 RMK A01 T01190002  RH  044%=      5-min Rain = 0
KSB1 112051Z 10012KT 12/M00 A3022 RMK A01 T01191001  RH  044%=      5-min Rain = 0
KSB1 112052Z 10012KT 12/M00 A3022 RMK A01 T01181001  RH  044%=      5-min Rain = 0
KSB1 112053Z 10012KT 12/M00 A3022 RMK A01 T01181002  RH  044%=      5-min Rain = 0
KSB1 112054Z 10012KT 12/M01 A3022 RMK A01 T01171005  RH  043%=      5-min Rain = 0
KSB1 112055Z 10013KT 12/M00 A3022 RMK A01 T01171004  RH  043%=      5-min Rain = 0
KSB1 112056Z 11012KT 12/M00 A3022 RMK A01 T01181003  RH  043%=      5-min Rain = 0
KSB1 112057Z 12010KT 12/M01 A3022 RMK A01 T01181006  RH  042%=      5-min Rain = 0
KSB1 112058Z 11010KT 12/M01 A3022 RMK A01 T01171006  RH  043%=      5-min Rain = 0
KSB1 112059Z 12011KT 12/M00 A3022 RMK A01 T01181004  RH  043%=      5-min Rain = 0
KSB1 112100Z 11014KT 12/M00 A3022 RMK A01 T01191003  RH  043%=      5-min Rain = 0
KSB1 112101Z 11010KT 12/M01 A3022 RMK A01 T01191005  RH  043%=      5-min Rain = 0
KSB1 112102Z 11008KT 12/00 A3022 RMK A01 T01190001  RH  044%=      5-min Rain = 0
KSB1 112103Z 09011KT 12/01 A3022 RMK A01 T01230006  RH  045%=      5-min Rain = 0
KSB1 112104Z 09013KT 12/00 A3022 RMK A01 T01230000  RH  043%=      5-min Rain = 0
KSB1 112105Z 09012KT 12/M00 A3022 RMK A01 T01211003  RH  042%=      5-min Rain = 0
KSB1 112106Z 09011KT 12/M00 A3022 RMK A01 T01211001  RH  043%=      5-min Rain = 0
KSB1 112107Z 08011G16KT 12/M00 A3022 RMK A01 T01221002  RH  043%=      5-min Rain = 0
KSB1 112108Z 08014KT 12/M01 A3022 RMK A01 T01211006  RH  042%=      5-min Rain = 0
KSB1 112109Z 08012KT 12/M01 A3021 RMK A01 T01201008  RH  041%=      5-min Rain = 0
KSB1 112110Z 08013KT 12/M01 A3021 RMK A01 T01201006  RH  042%=      5-min Rain = 0
KSB1 112111Z 09011KT 12/M00 A3021 RMK A01 T01221002  RH  043%=      5-min Rain = 0
KSB1 112112Z 10011KT 12/M00 A3021 RMK A01 T01241001  RH  042%=      5-min Rain = 0
KSB1 112113Z 10011KT 12/M01 A3021 RMK A01 T01241005  RH  041%=      5-min Rain = 0
KSB1 112114Z 09010KT 12/00 A3021 RMK A01 T01240000  RH  042%=      5-min Rain = 0
KSB1 112115Z 09012KT 13/00 A3021 RMK A01 T01260001  RH  042%=      5-min Rain = 0
KSB1 112116Z 10012KT 13/00 A3021 RMK A01 T01270002  RH  042%=      5-min Rain = 0
KSB1 112117Z 08012KT 13/M00 A3021 RMK A01 T01281002  RH  041%=      5-min Rain = 0
KSB1 112118Z 08010KT 13/M01 A3021 RMK A01 T01261007  RH  040%=      5-min Rain = 0
KSB1 112119Z 07012KT 13/M00 A3021 RMK A01 T01251004  RH  041%=      5-min Rain = 0
KSB1 112120Z 08010KT 13/M01 A3021 RMK A01 T01251007  RH  040%=      5-min Rain = 0
KSB1 112121Z 08011KT 12/M01 A3021 RMK A01 T01241007  RH  040%=      5-min Rain = 0
KSB1 112122Z 08008KT 12/M01 A3021 RMK A01 T01241007  RH  041%=      5-min Rain = 0
KSB1 112123Z 07013KT 13/M00 A3021 RMK A01 T01261001  RH  042%=      5-min Rain = 0
KSB1 112124Z 08011KT 13/M01 A3021 RMK A01 T01271007  RH  040%=      5-min Rain = 0
KSB1 112125Z 09013KT 13/M01 A3021 RMK A01 T01251006  RH  040%=      5-min Rain = 0
KSB1 112126Z 10013KT 13/M01 A3021 RMK A01 T01251009  RH  040%=      5-min Rain = 0
KSB1 112127Z 10011KT 12/M01 A3021 RMK A01 T01241007  RH  040%=      5-min Rain = 0
KSB1 112128Z 10010KT 13/M01 A3021 RMK A01 T01251008  RH  040%=      5-min Rain = 0
KSB1 112129Z 10011KT 13/M01 A3021 RMK A01 T01251009  RH  039%=      5-min Rain = 0
KSB1 112130Z 09014KT 13/M01 A3021 RMK A01 T01261007  RH  040%=      5-min Rain = 0
KSB1 112131Z 08013KT 13/M01 A3021 RMK A01 T01261010  RH  039%=      5-min Rain = 0
KSB1 112132Z 08009KT 13/M01 A3021 RMK A01 T01261007  RH  040%=      5-min Rain = 0
KSB1 112133Z 07011KT 13/M01 A302 RMK A01 T01281007  RH  039%=      5-min Rain = 0
KSB1 112134Z 07009KT 13/M01 A302 RMK A01 T01281009  RH  039%=      5-min Rain = 0
KSB1 112135Z 10010KT 13/M01 A302 RMK A01 T01291005  RH  039%=      5-min Rain = 0
KSB1 112136Z 12009KT 13/M01 A302 RMK A01 T01301009  RH  038%=      5-min Rain = 0
KSB1 112137Z 11009KT 13/M01 A302 RMK A01 T01291008  RH  039%=      5-min Rain = 0
KSB1 112138Z 11010KT 13/M01 A302 RMK A01 T01301007  RH  039%=      5-min Rain = 0
KSB1 112139Z 11011KT 13/M01 A302 RMK A01 T01301008  RH  039%=      5-min Rain = 0
KSB1 112140Z 09011KT 13/M01 A302 RMK A01 T01301009  RH  038%=      5-min Rain = 0
KSB1 112141Z 09012KT 13/M01 A302 RMK A01 T01301009  RH  038%=      5-min Rain = 0
KSB1 112142Z 09010KT 13/M01 A302 RMK A01 T01291013  RH  037%=      5-min Rain = 0
KSB1 112143Z 08011KT 13/M01 A302 RMK A01 T01291012  RH  038%=      5-min Rain = 0
KSB1 112144Z 10012KT 13/M01 A302 RMK A01 T01291011  RH  038%=      5-min Rain = 0
KSB1 112145Z 11012KT 13/M01 A302 RMK A01 T01301008  RH  039%=      5-min Rain = 0
KSB1 112146Z 11011KT 13/M01 A302 RMK A01 T01311010  RH  038%=      5-min Rain = 0
KSB1 112147Z 10013KT 13/M01 A302 RMK A01 T01301014  RH  037%=      5-min Rain = 0
KSB1 112148Z 10013KT 13/M01 A302 RMK A01 T01281012  RH  038%=      5-min Rain = 0
KSB1 112149Z 11011KT 13/M01 A3021 RMK A01 T01271013  RH  038%=      5-min Rain = 0
KSB1 112150Z 12011KT 13/M01 A302 RMK A01 T01271010  RH  039%=      5-min Rain = 0
KSB1 112151Z 11011KT 13/M01 A302 RMK A01 T01271010  RH  039%=      5-min Rain = 0
KSB1 112152Z 10011KT 13/M01 A302 RMK A01 T01271011  RH  038%=      5-min Rain = 0
KSB1 112153Z 10011KT 13/M01 A302 RMK A01 T01271009  RH  039%=      5-min Rain = 0
KSB1 112154Z 12009KT 13/M01 A302 RMK A01 T01271010  RH  039%=      5-min Rain = 0
KSB1 112155Z 12009KT 13/M01 A302 RMK A01 T01271010  RH  039%=      5-min Rain = 0
KSB1 112156Z 11009KT 13/M01 A302 RMK A01 T01261009  RH  039%=      5-min Rain = 0
KSB1 112157Z 10009KT 13/M01 A302 RMK A01 T01251011  RH  039%=      5-min Rain = 0
KSB1 112158Z 09009KT 12/M01 A302 RMK A01 T01241010  RH  040%=      5-min Rain = 0
KSB1 112159Z 11010KT 13/M00 A302 RMK A01 T01261004  RH  041%=      5-min Rain = 0
KSB1 112200Z 12012KT 13/M01 A302 RMK A01 T01281012  RH  038%=      5-min Rain = 0
KSB1 112201Z 11009KT 13/M02 A302 RMK A01 T01261016  RH  037%=      5-min Rain = 0
KSB1 112202Z 11010KT 13/M01 A302 RMK A01 T01261011  RH  039%=      5-min Rain = 0
KSB1 112203Z 09014KT 13/M01 A302 RMK A01 T01271013  RH  038%=      5-min Rain = 0
KSB1 112204Z 09012KT 13/M01 A302 RMK A01 T01261013  RH  038%=      5-min Rain = 0
KSB1 112205Z 09013KT 13/M01 A302 RMK A01 T01261011  RH  039%=      5-min Rain = 0
KSB1 112206Z 09012KT 13/M01 A302 RMK A01 T01261012  RH  038%=      5-min Rain = 0
KSB1 112207Z 08009KT 13/M01 A302 RMK A01 T01271013  RH  038%=      5-min Rain = 0
KSB1 112208Z 09009KT 13/M01 A302 RMK A01 T01271012  RH  038%=      5-min Rain = 0
KSB1 112209Z 09009KT 13/M01 A302 RMK A01 T01281011  RH  038%=      5-min Rain = 0
KSB1 112210Z 09010KT 13/M01 A302 RMK A01 T01291011  RH  038%=      5-min Rain = 0
KSB1 112211Z 10009KT 13/M01 A302 RMK A01 T01291011  RH  038%=      5-min Rain = 0
KSB1 112212Z 11011KT 13/M01 A302 RMK A01 T01281012  RH  038%=      5-min Rain = 0
KSB1 112213Z 11009KT 13/M01 A302 RMK A01 T01271009  RH  039%=      5-min Rain = 0
KSB1 112214Z 11011KT 13/M01 A302 RMK A01 T01281010  RH  038%=      5-min Rain = 0
KSB1 112215Z 10008KT 13/M01 A302 RMK A01 T01291012  RH  038%=      5-min Rain = 0
KSB1 112216Z 09010G15KT 13/M01 A302 RMK A01 T01301011  RH  038%=      5-min Rain = 0
KSB1 112217Z 09013KT 13/M01 A302 RMK A01 T01291013  RH  037%=      5-min Rain = 0
KSB1 112218Z 10011KT 13/M01 A302 RMK A01 T01281013  RH  037%=      5-min Rain = 0
KSB1 112219Z 10011KT 13/M01 A302 RMK A01 T01281009  RH  039%=      5-min Rain = 0
KSB1 112220Z 11011KT 13/M01 A302 RMK A01 T01291011  RH  038%=      5-min Rain = 0
KSB1 112221Z 12012KT 13/M01 A302 RMK A01 T01281011  RH  038%=      5-min Rain = 0
KSB1 112222Z 11013KT 13/M02 A302 RMK A01 T01261015  RH  038%=      5-min Rain = 0
KSB1 112223Z 12009KT 13/M01 A3021 RMK A01 T01251014  RH  038%=      5-min Rain = 0
KSB1 112224Z 12009KT 13/M01 A3021 RMK A01 T01261008  RH  040%=      5-min Rain = 0
KSB1 112225Z 11012KT 13/M01 A3021 RMK A01 T01271010  RH  039%=      5-min Rain = 0
KSB1 112226Z 10013KT 13/M01 A3021 RMK A01 T01261013  RH  038%=      5-min Rain = 0
KSB1 112227Z 10010KT 13/M01 A3021 RMK A01 T01261012  RH  038%=      5-min Rain = 0
KSB1 112228Z 11010KT 13/M01 A302 RMK A01 T01261011  RH  039%=      5-min Rain = 0
KSB1 112229Z 11013KT 13/M01 A302 RMK A01 T01261013  RH  038%=      5-min Rain = 0
KSB1 112230Z 11010KT 13/M02 A302 RMK A01 T01251017  RH  037%=      5-min Rain = 0
KSB1 112231Z 11010KT 12/M01 A3021 RMK A01 T01241014  RH  038%=      5-min Rain = 0
KSB1 112232Z 11009KT 13/M01 A3021 RMK A01 T01251014  RH  038%=      5-min Rain = 0
KSB1 112233Z 11010KT 13/M01 A3021 RMK A01 T01251014  RH  038%=      5-min Rain = 0
KSB1 112234Z 11011KT 13/M01 A3021 RMK A01 T01251014  RH  038%=      5-min Rain = 0
KSB1 112235Z 10011KT 13/M02 A3021 RMK A01 T01251016  RH  038%=      5-min Rain = 0
KSB1 112236Z 10011KT 12/M02 A3021 RMK A01 T01241018  RH  037%=      5-min Rain = 0
KSB1 112237Z 09011KT 12/M02 A3021 RMK A01 T01241016  RH  038%=      5-min Rain = 0
KSB1 112238Z 09010KT 12/M02 A3021 RMK A01 T01241017  RH  037%=      5-min Rain = 0
KSB1 112239Z 10012KT 12/M02 A3021 RMK A01 T01241017  RH  037%=      5-min Rain = 0
KSB1 112240Z 10011KT 12/M02 A3021 RMK A01 T01241019  RH  037%=      5-min Rain = 0
KSB1 112241Z 11010KT 12/M02 A3021 RMK A01 T01231021  RH  037%=      5-min Rain = 0
KSB1 112242Z 11011KT 12/M02 A3021 RMK A01 T01221019  RH  037%=      5-min Rain = 0
KSB1 112243Z 11010KT 12/M02 A3021 RMK A01 T01221019  RH  038%=      5-min Rain = 0
KSB1 112244Z 12011KT 12/M02 A3021 RMK A01 T01221017  RH  038%=      5-min Rain = 0
KSB1 112245Z 11013KT 12/M02 A3021 RMK A01 T01231017  RH  038%=      5-min Rain = 0
KSB1 112246Z 10013KT 12/M02 A3021 RMK A01 T01231018  RH  037%=      5-min Rain = 0
KSB1 112247Z 10010KT 12/M02 A3021 RMK A01 T01231018  RH  037%=      5-min Rain = 0
KSB1 112248Z 10011KT 12/M02 A3021 RMK A01 T01231016  RH  038%=      5-min Rain = 0
KSB1 112249Z 10011KT 12/M02 A3021 RMK A01 T01231018  RH  037%=      5-min Rain = 0
KSB1 112250Z 11010KT 12/M02 A3021 RMK A01 T01221020  RH  037%=      5-min Rain = 0
KSB1 112251Z 11012KT 12/M02 A3021 RMK A01 T01221019  RH  037%=      5-min Rain = 0
KSB1 112252Z 09011KT 12/M02 A3021 RMK A01 T01221018  RH  038%=      5-min Rain = 0
KSB1 112253Z 10011KT 12/M02 A3021 RMK A01 T01231016  RH  038%=      5-min Rain = 0
KSB1 112254Z 12012KT 12/M02 A3021 RMK A01 T01231018  RH  038%=      5-min Rain = 0
KSB1 112255Z 12009KT 12/M02 A3021 RMK A01 T01221019  RH  037%=      5-min Rain = 0
KSB1 112256Z 11011KT 12/M02 A3021 RMK A01 T01221016  RH  038%=      5-min Rain = 0
KSB1 112257Z 11010KT 12/M02 A3021 RMK A01 T01221016  RH  038%=      5-min Rain = 0
KSB1 112258Z 10012KT 12/M02 A3021 RMK A01 T01221016  RH  038%=      5-min Rain = 0
KSB1 112259Z 10010KT 12/M02 A3021 RMK A01 T01221017  RH  038%=      5-min Rain = 0
KSB1 112300Z 10010KT 12/M02 A3021 RMK A01 T01221015  RH  038%=      5-min Rain = 0
KSB1 112301Z 10009KT 12/M02 A3021 RMK A01 T01221017  RH  038%=      5-min Rain = 0
KSB1 112302Z 10008KT 12/M02 A3021 RMK A01 T01221017  RH  038%=      5-min Rain = 0
KSB1 112303Z 10007KT 12/M02 A3021 RMK A01 T01221019  RH  037%=      5-min Rain = 0
KSB1 112304Z 10009KT 12/M02 A3021 RMK A01 T01221016  RH  038%=      5-min Rain = 0
KSB1 112305Z 10008KT 12/M02 A3021 RMK A01 T01221017  RH  038%=      5-min Rain = 0
KSB1 112306Z 10010KT 12/M01 A3021 RMK A01 T01221014  RH  039%=      5-min Rain = 0
KSB1 112307Z 10012KT 12/M02 A3021 RMK A01 T01231017  RH  038%=      5-min Rain = 0
KSB1 112308Z 10012KT 12/M02 A3021 RMK A01 T01231018  RH  037%=      5-min Rain = 0
KSB1 112309Z 10012KT 12/M02 A3021 RMK A01 T01231020  RH  037%=      5-min Rain = 0
KSB1 112310Z 10011KT 12/M02 A3021 RMK A01 T01221019  RH  037%=      5-min Rain = 0
KSB1 112311Z 10010KT 12/M02 A3021 RMK A01 T01221018  RH  038%=      5-min Rain = 0
KSB1 112312Z 10007KT 12/M02 A3021 RMK A01 T01221019  RH  037%=      5-min Rain = 0
KSB1 112313Z 09009KT 12/M02 A3021 RMK A01 T01221017  RH  038%=      5-min Rain = 0
KSB1 112314Z 11009KT 12/M02 A3021 RMK A01 T01231018  RH  038%=      5-min Rain = 0
KSB1 112315Z 11010KT 12/M02 A3021 RMK A01 T01231020  RH  037%=      5-min Rain = 0
KSB1 112316Z 10009KT 12/M02 A3021 RMK A01 T01221019  RH  037%=      5-min Rain = 0
KSB1 112317Z 11011KT 12/M02 A3021 RMK A01 T01231019  RH  037%=      5-min Rain = 0
KSB1 112318Z 10011KT 12/M02 A3021 RMK A01 T01221019  RH  037%=      5-min Rain = 0
KSB1 112319Z 10011KT 12/M02 A3021 RMK A01 T01221019  RH  037%=      5-min Rain = 0
KSB1 112320Z 09012KT 12/M02 A3021 RMK A01 T01231020  RH  037%=      5-min Rain = 0
KSB1 112321Z 10011KT 12/M02 A3021 RMK A01 T01221021  RH  037%=      5-min Rain = 0
KSB1 112322Z 10010KT 12/M02 A3021 RMK A01 T01221021  RH  037%=      5-min Rain = 0
KSB1 112323Z 10011KT 12/M02 A3021 RMK A01 T01221017  RH  038%=      5-min Rain = 0
KSB1 112324Z 10012KT 12/M02 A3021 RMK A01 T01231022  RH  036%=      5-min Rain = 0
KSB1 112325Z 11009KT 12/M02 A3021 RMK A01 T01221023  RH  036%=      5-min Rain = 0
KSB1 112326Z 10012KT 12/M02 A3021 RMK A01 T01221021  RH  037%=      5-min Rain = 0
KSB1 112327Z 10013KT 12/M02 A3021 RMK A01 T01221023  RH  036%=      5-min Rain = 0
KSB1 112328Z 10013KT 12/M02 A3021 RMK A01 T01211024  RH  036%=      5-min Rain = 0
KSB1 112329Z 10013KT 12/M03 A3021 RMK A01 T01211025  RH  036%=      5-min Rain = 0
KSB1 112330Z 10012KT 12/M03 A3022 RMK A01 T01211025  RH  036%=      5-min Rain = 0
KSB1 112331Z 10012KT 12/M03 A3021 RMK A01 T01211025  RH  036%=      5-min Rain = 0
KSB1 112332Z 10011KT 12/M02 A3022 RMK A01 T01211022  RH  037%=      5-min Rain = 0
KSB1 112333Z 10012KT 12/M02 A3021 RMK A01 T01211023  RH  037%=      5-min Rain = 0
KSB1 112334Z 11010KT 12/M02 A3021 RMK A01 T01211023  RH  036%=      5-min Rain = 0
KSB1 112335Z 10010KT 12/M02 A3021 RMK A01 T01221022  RH  037%=      5-min Rain = 0
KSB1 112336Z 09013KT 12/M02 A3021 RMK A01 T01211023  RH  036%=      5-min Rain = 0
KSB1 112337Z 09013KT 12/M03 A3022 RMK A01 T01211025  RH  036%=      5-min Rain = 0
KSB1 112338Z 10012KT 12/M03 A3022 RMK A01 T01211025  RH  036%=      5-min Rain = 0
KSB1 112339Z 10012KT 12/M03 A3022 RMK A01 T01211025  RH  036%=      5-min Rain = 0
KSB1 112340Z 10012KT 12/M03 A3022 RMK A01 T01211026  RH  036%=      5-min Rain = 0
KSB1 112341Z 10012KT 12/M03 A3022 RMK A01 T01211026  RH  036%=      5-min Rain = 0
KSB1 112342Z 11010KT 12/M03 A3022 RMK A01 T01211025  RH  036%=      5-min Rain = 0
KSB1 112343Z 11010KT 12/M02 A3022 RMK A01 T01211023  RH  036%=      5-min Rain = 0
KSB1 112344Z 10013KT 12/M03 A3022 RMK A01 T01211026  RH  036%=      5-min Rain = 0
KSB1 112345Z 10012KT 12/M03 A3022 RMK A01 T01211028  RH  035%=      5-min Rain = 0
KSB1 112346Z 10011KT 12/M03 A3022 RMK A01 T01221026  RH  036%=      5-min Rain = 0
KSB1 112347Z 10011KT 12/M02 A3022 RMK A01 T01211024  RH  036%=      5-min Rain = 0
KSB1 112348Z 09013KT 12/M03 A3022 RMK A01 T01221025  RH  036%=      5-min Rain = 0
KSB1 112349Z 09013KT 12/M03 A3022 RMK A01 T01221026  RH  035%=      5-min Rain = 0
KSB1 112350Z 10011KT 12/M03 A3022 RMK A01 T01211028  RH  035%=      5-min Rain = 0
KSB1 112351Z 10011KT 12/M03 A3022 RMK A01 T01221025  RH  036%=      5-min Rain = 0
KSB1 112352Z 10012KT 12/M02 A3022 RMK A01 T01221024  RH  036%=      5-min Rain = 0
KSB1 112353Z 10012KT 12/M02 A3022 RMK A01 T01221024  RH  036%=      5-min Rain = 0
KSB1 112354Z 10015KT 12/M03 A3022 RMK A01 T01221026  RH  035%=      5-min Rain = 0
KSB1 112355Z 10014KT 12/M03 A3022 RMK A01 T01211028  RH  035%=      5-min Rain = 0
KSB1 112356Z 10013KT 12/M03 A3022 RMK A01 T01211029  RH  035%=      5-min Rain = 0
KSB1 112357Z 10013KT 12/M03 A3022 RMK A01 T01211028  RH  035%=      5-min Rain = 0
KSB1 112358Z 10013KT 12/M03 A3022 RMK A01 T01201027  RH  036%=      5-min Rain = 0
KSB1 112359Z 10013KT 12/M03 A3022 RMK A01 T01201027  RH  036%=      5-min Rain = 0
KSB1 120000Z 10012KT 12/M03 A3022 RMK A01 T01201028  RH  035%=      5-min Rain = 0
KSB1 120001Z 10014KT 12/M03 A3022 RMK A01 T01201027  RH  036%=      5-min Rain = 0
KSB1 120002Z 10014KT 12/M03 A3022 RMK A01 T01201028  RH  036%=      5-min Rain = 0
KSB1 120003Z 10013KT 12/M03 A3022 RMK A01 T01201027  RH  036%=      5-min Rain = 0
KSB1 120004Z 10014KT 12/M03 A3022 RMK A01 T01201028  RH  036%=      5-min Rain = 0
KSB1 120005Z 09014KT 12/M03 A3022 RMK A01 T01191030  RH  035%=      5-min Rain = 0
KSB1 120006Z 10012KT 12/M03 A3022 RMK A01 T01191028  RH  036%=      5-min Rain = 0
KSB1 120007Z 10013KT 12/M03 A3022 RMK A01 T01191028  RH  036%=      5-min Rain = 0
KSB1 120008Z 10012KT 12/M03 A3022 RMK A01 T01191027  RH  036%=      5-min Rain = 0
KSB1 120009Z 10011KT 12/M03 A3022 RMK A01 T01191027  RH  036%=      5-min Rain = 0
KSB1 120010Z 09013KT 12/M03 A3022 RMK A01 T01201026  RH  036%=      5-min Rain = 0
KSB1 120011Z 09013KT 12/M03 A3022 RMK A01 T01201027  RH  036%=      5-min Rain = 0
KSB1 120012Z 10012KT 12/M03 A3022 RMK A01 T01201029  RH  035%=      5-min Rain = 0
KSB1 120013Z 10015KT 12/M03 A3022 RMK A01 T01201031  RH  035%=      5-min Rain = 0
KSB1 120014Z 10013KT 12/M03 A3022 RMK A01 T01191032  RH  035%=      5-min Rain = 0
KSB1 120015Z 10014KT 12/M03 A3022 RMK A01 T01191030  RH  035%=      5-min Rain = 0
KSB1 120016Z 10015KT 12/M03 A3022 RMK A01 T01181033  RH  035%=      5-min Rain = 0
KSB1 120017Z 10014KT 12/M03 A3022 RMK A01 T01181034  RH  035%=      5-min Rain = 0
KSB1 120018Z 10013KT 12/M03 A3022 RMK A01 T01181032  RH  035%=      5-min Rain = 0
KSB1 120019Z 10013KT 12/M03 A3022 RMK A01 T01181029  RH  036%=      5-min Rain = 0.01
KSB1 120020Z 10012KT 12/M03 A3022 RMK A01 T01181030  RH  035%=      5-min Rain = 0
KSB1 120021Z 10014KT 12/M03 A3022 RMK A01 T01181031  RH  035%=      5-min Rain = 0
KSB1 120022Z 11015KT 12/M03 A3022 RMK A01 T01181033  RH  035%=      5-min Rain = 0
KSB1 120023Z 10014KT 12/M03 A3022 RMK A01 T01181032  RH  035%=      5-min Rain = 0
KSB1 120024Z 10013KT 12/M03 A3022 RMK A01 T01191032  RH  035%=      5-min Rain = 0
KSB1 120025Z 10013KT 12/M03 A3022 RMK A01 T01191032  RH  035%=      5-min Rain = 0
KSB1 120026Z 10012KT 12/M03 A3022 RMK A01 T01181031  RH  035%=      5-min Rain = 0
KSB1 120027Z 10013KT 12/M03 A3023 RMK A01 T01181031  RH  035%=      5-min Rain = 0
KSB1 120028Z 10014KT 12/M03 A3022 RMK A01 T01181034  RH  035%=      5-min Rain = 0
KSB1 120029Z 10015KT 12/M03 A3022 RMK A01 T01171033  RH  035%=      5-min Rain = 0
KSB1 120030Z 10014KT 12/M03 A3022 RMK A01 T01171033  RH  035%=      5-min Rain = 0
KSB1 120031Z 10013KT 12/M03 A3023 RMK A01 T01161033  RH  035%=      5-min Rain = 0
KSB1 120032Z 10012KT 12/M03 A3023 RMK A01 T01161032  RH  035%=      5-min Rain = 0
KSB1 120033Z 10011KT 12/M03 A3023 RMK A01 T01161030  RH  036%=      5-min Rain = 0
KSB1 120034Z 10013KT 12/M03 A3023 RMK A01 T01161030  RH  036%=      5-min Rain = 0
KSB1 120035Z 10013KT 12/M03 A3023 RMK A01 T01161033  RH  035%=      5-min Rain = 0
KSB1 120036Z 10012KT 12/M03 A3023 RMK A01 T01161032  RH  035%=      5-min Rain = 0
KSB1 120037Z 10015KT 12/M03 A3023 RMK A01 T01161033  RH  035%=      5-min Rain = 0
KSB1 120038Z 10013KT 12/M03 A3023 RMK A01 T01161034  RH  035%=      5-min Rain = 0
KSB1 120039Z 10012KT 12/M03 A3023 RMK A01 T01161033  RH  035%=      5-min Rain = 0
KSB1 120040Z 10014KT 12/M03 A3023 RMK A01 T01161034  RH  035%=      5-min Rain = 0
KSB1 120041Z 10012KT 12/M04 A3023 RMK A01 T01161035  RH  035%=      5-min Rain = 0
KSB1 120042Z 10013KT 12/M03 A3023 RMK A01 T01161033  RH  035%=      5-min Rain = 0
KSB1 120043Z 10014KT 12/M03 A3023 RMK A01 T01161034  RH  035%=      5-min Rain = 0
KSB1 120044Z 10013KT 12/M04 A3024 RMK A01 T01161035  RH  035%=      5-min Rain = 0
KSB1 120045Z 10013KT 12/M04 A3024 RMK A01 T01161035  RH  035%=      5-min Rain = 0
KSB1 120046Z 10011KT 12/M03 A3024 RMK A01 T01151034  RH  035%=      5-min Rain = 0
KSB1 120047Z 09012KT 12/M03 A3024 RMK A01 T01151032  RH  035%=      5-min Rain = 0
KSB1 120048Z 10010KT 12/M03 A3024 RMK A01 T01151033  RH  035%=      5-min Rain = 0
KSB1 120049Z 10011KT 12/M03 A3024 RMK A01 T01151031  RH  036%=      5-min Rain = 0
KSB1 120050Z 10012KT 12/M03 A3024 RMK A01 T01161032  RH  035%=      5-min Rain = 0
KSB1 120051Z 10011KT 12/M03 A3024 RMK A01 T01151032  RH  036%=      5-min Rain = 0
KSB1 120052Z 09011KT 12/M03 A3024 RMK A01 T01151030  RH  036%=      5-min Rain = 0
KSB1 120053Z 10011KT 11/M03 A3024 RMK A01 T01141032  RH  036%=      5-min Rain = 0
KSB1 120054Z 10011KT 11/M03 A3024 RMK A01 T01141031  RH  036%=      5-min Rain = 0
KSB1 120055Z 10014KT 11/M03 A3024 RMK A01 T01131032  RH  036%=      5-min Rain = 0
KSB1 120056Z 10013KT 11/M04 A3024 RMK A01 T01131035  RH  035%=      5-min Rain = 0
KSB1 120057Z 10012KT 11/M04 A3024 RMK A01 T01121035  RH  036%=      5-min Rain = 0
KSB1 120058Z 10013KT 11/M03 A3024 RMK A01 T01121034  RH  036%=      5-min Rain = 0
KSB1 120059Z 10013KT 11/M04 A3024 RMK A01 T01111035  RH  036%=      5-min Rain = 0
KSB1 120100Z 10012KT 11/M04 A3024 RMK A01 T01111035  RH  036%=      5-min Rain = 0
KSB1 120101Z 10013KT 11/M03 A3024 RMK A01 T01101033  RH  036%=      5-min Rain = 0
KSB1 120102Z 10014KT 11/M04 A3024 RMK A01 T01101035  RH  036%=      5-min Rain = 0
KSB1 120103Z 10013KT 11/M04 A3024 RMK A01 T01091036  RH  036%=      5-min Rain = 0
KSB1 120104Z 11014KT 11/M04 A3024 RMK A01 T01091036  RH  036%=      5-min Rain = 0
KSB1 120105Z 10015KT 11/M04 A3024 RMK A01 T01081036  RH  036%=      5-min Rain = 0
KSB1 120106Z 10012KT 11/M04 A3024 RMK A01 T01081036  RH  036%=      5-min Rain = 0
KSB1 120107Z 10013KT 11/M04 A3024 RMK A01 T01071036  RH  036%=      5-min Rain = 0
KSB1 120108Z 10013KT 11/M04 A3024 RMK A01 T01071035  RH  037%=      5-min Rain = 0
KSB1 120109Z 10014KT 11/M04 A3024 RMK A01 T01071035  RH  037%=      5-min Rain = 0
KSB1 120110Z 10014KT 11/M04 A3024 RMK A01 T01061037  RH  036%=      5-min Rain = 0
KSB1 120111Z 10012KT 11/M04 A3024 RMK A01 T01061037  RH  036%=      5-min Rain = 0
KSB1 120112Z 10011KT 11/M04 A3024 RMK A01 T01061036  RH  037%=      5-min Rain = 0
KSB1 120113Z 10011KT 11/M04 A3024 RMK A01 T01051035  RH  037%=      5-min Rain = 0
KSB1 120114Z 09012KT 11/M04 A3024 RMK A01 T01051036  RH  037%=      5-min Rain = 0
KSB1 120115Z 10012KT 11/M04 A3024 RMK A01 T01051036  RH  037%=      5-min Rain = 0
KSB1 120116Z 10013KT 10/M04 A3024 RMK A01 T01041036  RH  037%=      5-min Rain = 0
KSB1 120117Z 10012KT 10/M04 A3025 RMK A01 T01041038  RH  037%=      5-min Rain = 0
KSB1 120118Z 10013KT 10/M04 A3025 RMK A01 T01041036  RH  037%=      5-min Rain = 0
KSB1 120119Z 10013KT 10/M04 A3024 RMK A01 T01041036  RH  037%=      5-min Rain = 0
KSB1 120120Z 10014KT 10/M04 A3025 RMK A01 T01031039  RH  037%=      5-min Rain = 0
KSB1 120121Z 10013KT 10/M04 A3025 RMK A01 T01031040  RH  036%=      5-min Rain = 0
KSB1 120122Z 10012KT 10/M04 A3025 RMK A01 T01031038  RH  037%=      5-min Rain = 0
KSB1 120123Z 10011KT 10/M04 A3025 RMK A01 T01031037  RH  037%=      5-min Rain = 0
KSB1 120124Z 10012KT 10/M04 A3025 RMK A01 T01021038  RH  037%=      5-min Rain = 0
KSB1 120125Z 09013KT 10/M04 A3025 RMK A01 T01021038  RH  037%=      5-min Rain = 0
KSB1 120126Z 10011KT 10/M04 A3025 RMK A01 T01021038  RH  037%=      5-min Rain = 0
KSB1 120127Z 09011KT 10/M04 A3025 RMK A01 T01021038  RH  037%=      5-min Rain = 0
KSB1 120128Z 10012KT 10/M04 A3025 RMK A01 T01011038  RH  037%=      5-min Rain = 0
KSB1 120129Z 10010KT 10/M04 A3025 RMK A01 T01011037  RH  038%=      5-min Rain = 0
KSB1 120130Z 09013KT 10/M04 A3025 RMK A01 T01001037  RH  038%=      5-min Rain = 0
KSB1 120131Z 09012KT 10/M04 A3025 RMK A01 T01011038  RH  038%=      5-min Rain = 0
KSB1 120132Z 10012KT 10/M04 A3025 RMK A01 T01001039  RH  037%=      5-min Rain = 0
KSB1 120133Z 10014KT 10/M04 A3024 RMK A01 T01001038  RH  038%=      5-min Rain = 0
KSB1 120134Z 09014KT 10/M04 A3024 RMK A01 T01001039  RH  037%=      5-min Rain = 0
KSB1 120135Z 10013KT 10/M04 A3024 RMK A01 T01001040  RH  037%=      5-min Rain = 0
KSB1 120136Z 10012KT 10/M04 A3024 RMK A01 T01001039  RH  037%=      5-min Rain = 0
KSB1 120137Z 10011KT 10/M04 A3024 RMK A01 T00991039  RH  037%=      5-min Rain = 0
KSB1 120138Z 10012KT 10/M04 A3024 RMK A01 T00991038  RH  038%=      5-min Rain = 0
KSB1 120139Z 10012KT 10/M04 A3025 RMK A01 T00981038  RH  038%=      5-min Rain = 0
KSB1 120140Z 10012KT 10/M04 A3025 RMK A01 T00981039  RH  038%=      5-min Rain = 0
KSB1 120141Z 10012KT 10/M04 A3025 RMK A01 T00981041  RH  038%=      5-min Rain = 0
KSB1 120142Z 11013KT 10/M04 A3025 RMK A01 T00981041  RH  037%=      5-min Rain = 0
KSB1 120143Z 10012KT 10/M04 A3025 RMK A01 T00991041  RH  037%=      5-min Rain = 0
KSB1 120144Z 10011KT 10/M04 A3025 RMK A01 T00991040  RH  037%=      5-min Rain = 0
KSB1 120145Z 10014KT 10/M04 A3025 RMK A01 T00981041  RH  037%=      5-min Rain = 0
KSB1 120146Z 10013KT 10/M04 A3025 RMK A01 T00981042  RH  037%=      5-min Rain = 0
KSB1 120147Z 10012KT 10/M04 A3025 RMK A01 T00981042  RH  037%=      5-min Rain = 0
KSB1 120148Z 10013KT 10/M04 A3025 RMK A01 T00981043  RH  037%=      5-min Rain = 0
KSB1 120149Z 10012KT 10/M04 A3025 RMK A01 T00981043  RH  037%=      5-min Rain = 0
KSB1 120150Z 11011KT 10/M04 A3026 RMK A01 T00981043  RH  037%=      5-min Rain = 0
KSB1 120151Z 10011KT 10/M04 A3026 RMK A01 T00971042  RH  037%=      5-min Rain = 0
KSB1 120152Z 10011KT 10/M04 A3025 RMK A01 T00961042  RH  037%=      5-min Rain = 0
KSB1 120153Z 10011KT 10/M04 A3025 RMK A01 T00961042  RH  037%=      5-min Rain = 0
KSB1 120154Z 10013KT 10/M04 A3025 RMK A01 T00961042  RH  038%=      5-min Rain = 0
KSB1 120155Z 10012KT 10/M04 A3025 RMK A01 T00951043  RH  038%=      5-min Rain = 0
KSB1 120156Z 10013KT 10/M04 A3025 RMK A01 T00951042  RH  038%=      5-min Rain = 0
KSB1 120157Z 10014KT 09/M04 A3025 RMK A01 T00941042  RH  038%=      5-min Rain = 0
KSB1 120158Z 10013KT 09/M04 A3025 RMK A01 T00941043  RH  038%=      5-min Rain = 0
KSB1 120159Z 10013KT 09/M04 A3025 RMK A01 T00941044  RH  037%=      5-min Rain = 0
KSB1 120200Z 10013KT 10/M04 A3025 RMK A01 T00951044  RH  037%=      5-min Rain = 0
KSB1 120201Z 11013KT 09/M04 A3025 RMK A01 T00941043  RH  038%=      5-min Rain = 0
KSB1 120202Z 11012KT 09/M04 A3026 RMK A01 T00941043  RH  038%=      5-min Rain = 0
KSB1 120203Z 10012KT 09/M04 A3026 RMK A01 T00941043  RH  038%=      5-min Rain = 0
KSB1 120204Z 10013KT 09/M04 A3026 RMK A01 T00941043  RH  038%=      5-min Rain = 0
KSB1 120205Z 11013KT 09/M04 A3026 RMK A01 T00931044  RH  038%=      5-min Rain = 0
KSB1 120206Z 10012KT 09/M04 A3026 RMK A01 T00931044  RH  038%=      5-min Rain = 0
KSB1 120207Z 10012G17KT 09/M04 A3026 RMK A01 T00931043  RH  038%=      5-min Rain = 0
KSB1 120208Z 10011KT 09/M04 A3026 RMK A01 T00931043  RH  038%=      5-min Rain = 0
KSB1 120209Z 10012KT 09/M04 A3026 RMK A01 T00921044  RH  038%=      5-min Rain = 0
KSB1 120210Z 10012KT 09/M04 A3026 RMK A01 T00931044  RH  038%=      5-min Rain = 0
KSB1 120211Z 11012KT 09/M04 A3026 RMK A01 T00931044  RH  038%=      5-min Rain = 0
KSB1 120212Z 10012KT 09/M04 A3026 RMK A01 T00931044  RH  038%=      5-min Rain = 0
KSB1 120213Z 10011KT 09/M04 A3026 RMK A01 T00921044  RH  038%=      5-min Rain = 0
KSB1 120214Z 10011KT 09/M04 A3026 RMK A01 T00921043  RH  038%=      5-min Rain = 0
KSB1 120215Z 10010KT 09/M04 A3026 RMK A01 T00921043  RH  038%=      5-min Rain = 0
KSB1 120216Z 10009KT 09/M04 A3026 RMK A01 T00911043  RH  038%=      5-min Rain = 0
KSB1 120217Z 10010KT 09/M04 A3027 RMK A01 T00911043  RH  039%=      5-min Rain = 0
KSB1 120218Z 10011KT 09/M04 A3027 RMK A01 T00901043  RH  039%=      5-min Rain = 0
KSB1 120219Z 10010KT 09/M04 A3027 RMK A01 T00901043  RH  039%=      5-min Rain = 0
KSB1 120220Z 10010KT 09/M04 A3027 RMK A01 T00901042  RH  039%=      5-min Rain = 0
KSB1 120221Z 10012KT 09/M04 A3027 RMK A01 T00901043  RH  039%=      5-min Rain = 0
KSB1 120222Z 10013KT 09/M04 A3027 RMK A01 T00901044  RH  038%=      5-min Rain = 0
KSB1 120223Z 10011KT 09/M05 A3027 RMK A01 T00901045  RH  038%=      5-min Rain = 0
KSB1 120224Z 10012KT 09/M04 A3027 RMK A01 T00901044  RH  038%=      5-min Rain = 0
KSB1 120225Z 10011KT 09/M04 A3027 RMK A01 T00901044  RH  038%=      5-min Rain = 0
KSB1 120226Z 10011KT 09/M04 A3027 RMK A01 T00901044  RH  038%=      5-min Rain = 0
KSB1 120227Z 10010KT 09/M04 A3027 RMK A01 T00901044  RH  038%=      5-min Rain = 0
KSB1 120228Z 10010KT 09/M04 A3027 RMK A01 T00891043  RH  039%=      5-min Rain = 0
KSB1 120229Z 10010KT 09/M04 A3027 RMK A01 T00891044  RH  039%=      5-min Rain = 0
KSB1 120230Z 10010KT 09/M04 A3027 RMK A01 T00891044  RH  039%=      5-min Rain = 0
KSB1 120231Z 10011KT 09/M04 A3027 RMK A01 T00881044  RH  039%=      5-min Rain = 0
KSB1 120232Z 10011KT 09/M05 A3027 RMK A01 T00881045  RH  039%=      5-min Rain = 0
KSB1 120233Z 10010KT 09/M04 A3027 RMK A01 T00881044  RH  039%=      5-min Rain = 0
KSB1 120234Z 10011KT 09/M04 A3027 RMK A01 T00881044  RH  039%=      5-min Rain = 0
KSB1 120235Z 11010KT 09/M05 A3028 RMK A01 T00881045  RH  039%=      5-min Rain = 0
KSB1 120236Z 10010KT 09/M05 A3028 RMK A01 T00881045  RH  039%=      5-min Rain = 0
KSB1 120237Z 10011KT 09/M05 A3028 RMK A01 T00871046  RH  039%=      5-min Rain = 0
KSB1 120238Z 11011KT 09/M05 A3028 RMK A01 T00881048  RH  038%=      5-min Rain = 0
KSB1 120239Z 11012KT 09/M05 A3028 RMK A01 T00881048  RH  038%=      5-min Rain = 0
KSB1 120240Z 10011KT 09/M05 A3028 RMK A01 T00881049  RH  038%=      5-min Rain = 0
KSB1 120241Z 11011KT 09/M05 A3028 RMK A01 T00881049  RH  038%=      5-min Rain = 0
KSB1 120242Z 10010KT 09/M05 A3028 RMK A01 T00881049  RH  038%=      5-min Rain = 0
KSB1 120243Z 11013KT 09/M05 A3028 RMK A01 T00881049  RH  038%=      5-min Rain = 0
KSB1 120244Z 10012KT 09/M05 A3028 RMK A01 T00871050  RH  037%=      5-min Rain = 0
KSB1 120245Z 11013KT 09/M05 A3028 RMK A01 T00871051  RH  037%=      5-min Rain = 0
KSB1 120246Z 10012KT 09/M05 A3028 RMK A01 T00881051  RH  037%=      5-min Rain = 0
KSB1 120247Z 10012KT 09/M05 A3028 RMK A01 T00871051  RH  037%=      5-min Rain = 0
KSB1 120248Z 10011KT 09/M05 A3028 RMK A01 T00871051  RH  037%=      5-min Rain = 0
KSB1 120249Z 10012KT 09/M05 A3028 RMK A01 T00871051  RH  037%=      5-min Rain = 0
KSB1 120250Z 10011KT 09/M05 A3028 RMK A01 T00871052  RH  037%=      5-min Rain = 0
KSB1 120251Z 09010KT 09/M05 A3028 RMK A01 T00871052  RH  037%=      5-min Rain = 0
KSB1 120252Z 10010KT 09/M05 A3028 RMK A01 T00861052  RH  037%=      5-min Rain = 0
KSB1 120253Z 10010KT 09/M05 A3029 RMK A01 T00861052  RH  037%=      5-min Rain = 0
KSB1 120254Z 09009KT 09/M05 A3029 RMK A01 T00851051  RH  038%=      5-min Rain = 0
KSB1 120255Z 10010KT 09/M05 A3029 RMK A01 T00851052  RH  038%=      5-min Rain = 0
KSB1 120256Z 09009KT 09/M05 A3029 RMK A01 T00851052  RH  038%=      5-min Rain = 0
KSB1 120257Z 09009KT 08/M05 A3029 RMK A01 T00841053  RH  037%=      5-min Rain = 0
KSB1 120258Z 09011KT 08/M05 A3029 RMK A01 T00841053  RH  037%=      5-min Rain = 0
KSB1 120259Z 09011KT 08/M06 A3029 RMK A01 T00841055  RH  037%=      5-min Rain = 0
KSB1 120300Z 09010KT 08/M06 A3029 RMK A01 T00841057  RH  036%=      5-min Rain = 0
KSB1 120301Z 10009KT 09/M06 A3029 RMK A01 T00851056  RH  036%=      5-min Rain = 0
KSB1 120302Z 09011KT 08/M06 A3029 RMK A01 T00841056  RH  036%=      5-min Rain = 0
KSB1 120303Z 09009KT 08/M06 A3029 RMK A01 T00841057  RH  036%=      5-min Rain = 0
KSB1 120304Z 09010KT 08/M06 A3029 RMK A01 T00841057  RH  036%=      5-min Rain = 0
KSB1 120305Z 09008KT 08/M06 A3029 RMK A01 T00841057  RH  036%=      5-min Rain = 0
KSB1 120306Z 09009KT 08/M06 A3029 RMK A01 T00831058  RH  036%=      5-min Rain = 0
KSB1 120307Z 09008KT 08/M06 A303 RMK A01 T00831058  RH  036%=      5-min Rain = 0
KSB1 120308Z 08007KT 08/M06 A303 RMK A01 T00831056  RH  037%=      5-min Rain = 0
KSB1 120309Z 08008KT 08/M06 A303 RMK A01 T00821056  RH  037%=      5-min Rain = 0
KSB1 120310Z 08008KT 08/M06 A303 RMK A01 T00811056  RH  037%=      5-min Rain = 0
KSB1 120311Z 08008KT 08/M06 A303 RMK A01 T00811057  RH  037%=      5-min Rain = 0
KSB1 120312Z 09007KT 08/M06 A303 RMK A01 T00811056  RH  037%=      5-min Rain = 0
KSB1 120313Z 09008KT 08/M06 A303 RMK A01 T00801056  RH  037%=      5-min Rain = 0
KSB1 120314Z 09009KT 08/M06 A303 RMK A01 T00801057  RH  037%=      5-min Rain = 0
KSB1 120315Z 09009KT 08/M06 A303 RMK A01 T00801059  RH  037%=      5-min Rain = 0
KSB1 120316Z 09009KT 08/M06 A303 RMK A01 T00801060  RH  036%=      5-min Rain = 0
KSB1 120317Z 09008KT 08/M06 A303 RMK A01 T00811059  RH  037%=      5-min Rain = 0
KSB1 120318Z 09008KT 08/M06 A303 RMK A01 T00811059  RH  036%=      5-min Rain = 0
KSB1 120319Z 09007KT 08/M06 A303 RMK A01 T00811059  RH  037%=      5-min Rain = 0
KSB1 120320Z 09007KT 08/M06 A303 RMK A01 T00811058  RH  037%=      5-min Rain = 0
KSB1 120321Z 09007KT 08/M06 A303 RMK A01 T00801057  RH  037%=      5-min Rain = 0
KSB1 120322Z 09008KT 08/M06 A303 RMK A01 T00801058  RH  037%=      5-min Rain = 0
KSB1 120323Z 09008KT 08/M06 A303 RMK A01 T00801058  RH  037%=      5-min Rain = 0
KSB1 120324Z 09008KT 08/M06 A303 RMK A01 T00801059  RH  037%=      5-min Rain = 0
KSB1 120325Z 09007KT 08/M06 A303 RMK A01 T00801057  RH  037%=      5-min Rain = 0
KSB1 120326Z 09007KT 08/M06 A303 RMK A01 T00801057  RH  037%=      5-min Rain = 0
KSB1 120327Z 09007KT 08/M06 A3031 RMK A01 T00801057  RH  038%=      5-min Rain = 0
KSB1 120328Z 09007KT 08/M06 A3031 RMK A01 T00801058  RH  037%=      5-min Rain = 0
KSB1 120329Z 09007KT 08/M06 A3031 RMK A01 T00811058  RH  037%=      5-min Rain = 0
KSB1 120330Z 09006KT 08/M06 A3031 RMK A01 T00811057  RH  037%=      5-min Rain = 0
KSB1 120331Z 09006KT 08/M06 A3031 RMK A01 T00811057  RH  037%=      5-min Rain = 0
KSB1 120332Z 08006KT 08/M06 A3031 RMK A01 T00811055  RH  038%=      5-min Rain = 0
KSB1 120333Z 08007KT 08/M06 A3031 RMK A01 T00801056  RH  037%=      5-min Rain = 0
KSB1 120334Z 07006KT 08/M06 A3031 RMK A01 T00811055  RH  038%=      5-min Rain = 0
KSB1 120335Z 07006KT 08/M05 A3031 RMK A01 T00801054  RH  038%=      5-min Rain = 0
KSB1 120336Z 07006KT 08/M05 A3031 RMK A01 T00801052  RH  039%=      5-min Rain = 0
KSB1 120337Z 06005KT 08/M05 A3031 RMK A01 T00801050  RH  039%=      5-min Rain = 0
KSB1 120338Z 05004KT 08/M05 A3031 RMK A01 T00801047  RH  040%=      5-min Rain = 0
KSB1 120339Z 05005KT 08/M04 A3031 RMK A01 T00781044  RH  042%=      5-min Rain = 0
KSB1 120340Z 05005KT 08/M04 A3031 RMK A01 T00781043  RH  042%=      5-min Rain = 0
KSB1 120341Z 05006KT 08/M04 A303 RMK A01 T00781042  RH  042%=      5-min Rain = 0
KSB1 120342Z 05006KT 08/M04 A303 RMK A01 T00771043  RH  042%=      5-min Rain = 0
KSB1 120343Z 06006KT 08/M04 A303 RMK A01 T00771044  RH  042%=      5-min Rain = 0
KSB1 120344Z 06005KT 08/M04 A3031 RMK A01 T00771044  RH  042%=      5-min Rain = 0
KSB1 120345Z 07005KT 08/M04 A3031 RMK A01 T00781044  RH  042%=      5-min Rain = 0
KSB1 120346Z 07005KT 08/M05 A3031 RMK A01 T00781048  RH  040%=      5-min Rain = 0
KSB1 120347Z 07005KT 08/M05 A3031 RMK A01 T00781048  RH  040%=      5-min Rain = 0
KSB1 120348Z 07004KT 08/M05 A3031 RMK A01 T00791047  RH  041%=      5-min Rain = 0
KSB1 120349Z 08004KT 08/M05 A3031 RMK A01 T00791049  RH  040%=      5-min Rain = 0
KSB1 120350Z 08004KT 08/M05 A3031 RMK A01 T00791046  RH  041%=      5-min Rain = 0
KSB1 120351Z 09005KT 08/M05 A3031 RMK A01 T00791046  RH  041%=      5-min Rain = 0
KSB1 120352Z 09004KT 08/M05 A3031 RMK A01 T00791047  RH  041%=      5-min Rain = 0
KSB1 120353Z 09007KT 08/M05 A3031 RMK A01 T00791048  RH  040%=      5-min Rain = 0
KSB1 120354Z 09008KT 08/M06 A3031 RMK A01 T00801056  RH  038%=      5-min Rain = 0
KSB1 120355Z 10008KT 08/M06 A3031 RMK A01 T00811059  RH  037%=      5-min Rain = 0
KSB1 120356Z 09008KT 08/M06 A3031 RMK A01 T00811059  RH  036%=      5-min Rain = 0
KSB1 120357Z 10008KT 08/M06 A303 RMK A01 T00821062  RH  036%=      5-min Rain = 0
KSB1 120358Z 10008KT 08/M06 A303 RMK A01 T00821061  RH  036%=      5-min Rain = 0
KSB1 120359Z 10008KT 08/M06 A303 RMK A01 T00821063  RH  035%=      5-min Rain = 0
KSB1 120400Z 10009KT 08/M06 A3031 RMK A01 T00821063  RH  035%=      5-min Rain = 0
KSB1 120401Z 10011KT 08/M07 A3031 RMK A01 T00831066  RH  034%=      5-min Rain = 0
KSB1 120402Z 10010KT 08/M07 A3031 RMK A01 T00831068  RH  034%=      5-min Rain = 0
KSB1 120403Z 10009KT 08/M07 A3031 RMK A01 T00831066  RH  034%=      5-min Rain = 0
KSB1 120404Z 10009KT 08/M07 A303 RMK A01 T00831066  RH  034%=      5-min Rain = 0
KSB1 120405Z 09008KT 08/M07 A303 RMK A01 T00831066  RH  034%=      5-min Rain = 0
KSB1 120406Z 09011KT 08/M07 A303 RMK A01 T00831068  RH  034%=      5-min Rain = 0
KSB1 120407Z 09009KT 08/M07 A303 RMK A01 T00831070  RH  033%=      5-min Rain = 0
KSB1 120408Z 09009KT 08/M07 A303 RMK A01 T00831067  RH  034%=      5-min Rain = 0
KSB1 120409Z 09010KT 08/M07 A303 RMK A01 T00821068  RH  034%=      5-min Rain = 0
KSB1 120410Z 09009KT 08/M07 A303 RMK A01 T00831071  RH  033%=      5-min Rain = 0
KSB1 120411Z 10008KT 08/M07 A303 RMK A01 T00821069  RH  034%=      5-min Rain = 0
KSB1 120412Z 09010KT 08/M07 A303 RMK A01 T00821070  RH  033%=      5-min Rain = 0
KSB1 120413Z 10010KT 08/M07 A303 RMK A01 T00821072  RH  033%=      5-min Rain = 0
KSB1 120414Z 09011KT 08/M07 A303 RMK A01 T00821073  RH  032%=      5-min Rain = 0
KSB1 120415Z 10009KT 08/M07 A3031 RMK A01 T00821074  RH  032%=      5-min Rain = 0
KSB1 120416Z 09008KT 08/M08 A3031 RMK A01 T00821075  RH  032%=      5-min Rain = 0
KSB1 120417Z 09008KT 08/M07 A3031 RMK A01 T00821072  RH  033%=      5-min Rain = 0
KSB1 120418Z 09008KT 08/M07 A3031 RMK A01 T00821073  RH  033%=      5-min Rain = 0
KSB1 120419Z 09007KT 08/M07 A3031 RMK A01 T00821073  RH  032%=      5-min Rain = 0
KSB1 120420Z 09008KT 08/M08 A3031 RMK A01 T00821076  RH  032%=      5-min Rain = 0
KSB1 120421Z 09007KT 08/M08 A3031 RMK A01 T00821077  RH  032%=      5-min Rain = 0
KSB1 120422Z 09008KT 08/M08 A3031 RMK A01 T00811076  RH  032%=      5-min Rain = 0
KSB1 120423Z 09006KT 08/M08 A3031 RMK A01 T00821075  RH  032%=      5-min Rain = 0
KSB1 120424Z 09007KT 08/M08 A3031 RMK A01 T00811075  RH  032%=      5-min Rain = 0
KSB1 120425Z 10007KT 08/M07 A3031 RMK A01 T00811074  RH  032%=      5-min Rain = 0
KSB1 120426Z 10007KT 08/M07 A3031 RMK A01 T00811074  RH  033%=      5-min Rain = 0
KSB1 120427Z 10010KT 08/M08 A3031 RMK A01 T00801076  RH  032%=      5-min Rain = 0
KSB1 120428Z 10008KT 08/M08 A3032 RMK A01 T00811080  RH  031%=      5-min Rain = 0
KSB1 120429Z 10007KT 08/M08 A3032 RMK A01 T00821079  RH  031%=      5-min Rain = 0
KSB1 120430Z 10007KT 08/M08 A3032 RMK A01 T00811079  RH  031%=      5-min Rain = 0
KSB1 120431Z 10007KT 08/M08 A3032 RMK A01 T00821080  RH  031%=      5-min Rain = 0
KSB1 120432Z 10007KT 08/M08 A3032 RMK A01 T00821079  RH  031%=      5-min Rain = 0
KSB1 120433Z 09008KT 08/M08 A3032 RMK A01 T00821078  RH  031%=      5-min Rain = 0
KSB1 120434Z 10008KT 08/M08 A3032 RMK A01 T00821080  RH  031%=      5-min Rain = 0
KSB1 120435Z 10008KT 08/M08 A3032 RMK A01 T00821081  RH  031%=      5-min Rain = 0
KSB1 120436Z 10008KT 08/M08 A3032 RMK A01 T00821079  RH  031%=      5-min Rain = 0
KSB1 120437Z 10008KT 08/M08 A3032 RMK A01 T00821078  RH  031%=      5-min Rain = 0
KSB1 120438Z 10009KT 08/M08 A3031 RMK A01 T00821081  RH  031%=      5-min Rain = 0
KSB1 120439Z 10010KT 08/M08 A3031 RMK A01 T00821082  RH  030%=      5-min Rain = 0
KSB1 120440Z 10010KT 08/M08 A3031 RMK A01 T00821084  RH  030%=      5-min Rain = 0
KSB1 120441Z 10010KT 08/M09 A3031 RMK A01 T00821085  RH  030%=      5-min Rain = 0
KSB1 120442Z 09011KT 08/M08 A3031 RMK A01 T00821084  RH  030%=      5-min Rain = 0
KSB1 120443Z 09010KT 08/M09 A3031 RMK A01 T00821086  RH  029%=      5-min Rain = 0
KSB1 120444Z 10009KT 08/M09 A3031 RMK A01 T00821085  RH  030%=      5-min Rain = 0
KSB1 120445Z 09011KT 08/M09 A3031 RMK A01 T00821085  RH  030%=      5-min Rain = 0
KSB1 120446Z 10012KT 08/M09 A3031 RMK A01 T00821086  RH  029%=      5-min Rain = 0
KSB1 120447Z 10011KT 08/M09 A3031 RMK A01 T00821089  RH  029%=      5-min Rain = 0
KSB1 120448Z 10009KT 08/M09 A3031 RMK A01 T00831087  RH  029%=      5-min Rain = 0
KSB1 120449Z 09011KT 08/M09 A3032 RMK A01 T00821087  RH  029%=      5-min Rain = 0
KSB1 120450Z 09011KT 08/M09 A3032 RMK A01 T00821091  RH  028%=      5-min Rain = 0
KSB1 120451Z 10012KT 08/M09 A3032 RMK A01 T00831092  RH  028%=      5-min Rain = 0
KSB1 120452Z 10011KT 08/M09 A3032 RMK A01 T00831091  RH  028%=      5-min Rain = 0
KSB1 120453Z 09011KT 08/M09 A3032 RMK A01 T00831093  RH  028%=      5-min Rain = 0
KSB1 120454Z 10010KT 08/M09 A3032 RMK A01 T00831092  RH  028%=      5-min Rain = 0
KSB1 120455Z 09008KT 08/M09 A3032 RMK A01 T00831090  RH  028%=      5-min Rain = 0
KSB1 120456Z 09011KT 08/M09 A3032 RMK A01 T00831090  RH  028%=      5-min Rain = 0
KSB1 120457Z 10011KT 08/M09 A3032 RMK A01 T00831094  RH  028%=      5-min Rain = 0
KSB1 120458Z 10009KT 08/M09 A3032 RMK A01 T00831093  RH  028%=      5-min Rain = 0
KSB1 120459Z 09009KT 08/M09 A3032 RMK A01 T00831092  RH  028%=      5-min Rain = 0

Page generated in 0.082 seconds.